U28200 / G-EZAN 7700 Squawk Report (10th of January, 2019)

Aircraft A319 Reg No. G-EZAN Age 12 years old
Model A319 Jet engines 2 First flight 21-04-06
Registered 04-05-06 Rollout 04-06 Delivered 04-05-06
Construction No. 2765 Line No. N/A Series 111
ADSHEX 400DB1 Airline name easyJet Owner N/A
Airfield based Luton~Beds~G First tracked 2017-07-13 08:19:00

Flight history for G-EZAN

Route Flight No Date Playback
Son Sant Joan (PMI) - Schonefeld (SXF) U24502 2019-01-19 13:22:00
Schonefeld (SXF) - Son Sant Joan (PMI) U24501 2019-01-19 09:56:00
Kastrup (CPH) - Schonefeld (SXF) U24560 2019-01-19 07:18:00
Schonefeld (SXF) - Kastrup (CPH) U24559 2019-01-18 21:09:00
Son Sant Joan (PMI) - Schonefeld (SXF) U24502 2019-01-18 19:21:00
Schonefeld (SXF) - Son Sant Joan (PMI) U24501 2019-01-18 16:11:00
Ljubljana (LJU) - Schonefeld (SXF) U24604 2019-01-18 12:45:00
Schonefeld (SXF) - Ljubljana (LJU) U24603 2019-01-18 09:15:00
Gatwick (LGW) - Schonefeld (SXF) U28217 2019-01-18 05:09:00
Son Sant Joan (PMI) - Gatwick (LGW) U28628 2019-01-17 16:41:00
Gatwick (LGW) - Son Sant Joan (PMI) U28627 2019-01-17 13:21:00
Dyce (ABZ) - Gatwick (LGW) U2874 2019-01-16 22:20:00
Gatwick (LGW) - Dyce (ABZ) U2873 2019-01-16 19:56:00
???? U29093 2019-01-16 17:22:00
???? U29 2019-01-16 16:20:00
???? U29093 2019-01-16 13:57:00
???? U29092 2019-01-16 10:45:00
Schiphol (AMS) - Gatwick (LGW) U28884 2019-01-16 09:16:00
Gatwick (LGW) - Schiphol (AMS) U28881 2019-01-15 19:23:00
Barajas (MAD) - Gatwick (LGW) U28278 2019-01-15 17:41:00
Time Lat Lon Altitude Heading Speed Vertical Rate
2019-01-10 23:32:44 GMT 51.152832 -0.188904 0 258 0 0
2019-01-10 23:32:38 GMT 51.152843 -0.188866 0 258 2 0
2019-01-10 23:32:29 GMT 51.152855 -0.188713 0 258 3 0
2019-01-10 23:32:21 GMT 51.152878 -0.188446 0 255 6 0
2019-01-10 23:32:17 GMT 51.152893 -0.188308 0 255 7 0
2019-01-10 23:32:08 GMT 51.153019 -0.187788 0 261 9 0
2019-01-10 23:31:46 GMT 51.152264 -0.187149 0 345 15 0
2019-01-10 23:31:37 GMT 51.151737 -0.186939 0 351 12 0
2019-01-10 23:31:22 GMT 51.151249 -0.187721 0 78 16 0
2019-01-10 23:31:16 GMT 51.151154 -0.188456 0 75 24 0
2019-01-10 23:31:06 GMT 51.150890 -0.190392 0 75 26 0
2019-01-10 23:30:55 GMT 51.150650 -0.192149 0 78 23 0
2019-01-10 23:30:45 GMT 51.150421 -0.193748 0 78 19 0
2019-01-10 23:30:34 GMT 51.150227 -0.195236 0 78 26 0
2019-01-10 23:30:24 GMT 51.149960 -0.197201 0 78 28 0
2019-01-10 23:30:13 GMT 51.149643 -0.199451 0 78 26 0
2019-01-10 23:30:04 GMT 51.149403 -0.201187 0 78 24 0
2019-01-10 23:29:57 GMT 51.149246 -0.202332 0 78 22 0
2019-01-10 23:29:54 GMT 51.149200 -0.202656 0 78 21 0
2019-01-10 23:29:46 GMT 51.149052 -0.203705 0 75 19 0
2019-01-10 23:29:43 GMT 51.148991 -0.204101 0 78 19 0
2019-01-10 23:29:37 GMT 51.148876 -0.204945 0 78 17 0
2019-01-10 23:29:33 GMT 51.148819 -0.205344 0 75 17 0
2019-01-10 23:29:23 GMT 51.148407 -0.206439 0 11 15 0
2019-01-10 23:29:16 GMT 51.147995 -0.206309 0 315 13 0
2019-01-10 23:29:13 GMT 51.147923 -0.206184 0 298 12 0
2019-01-10 23:29:06 GMT 51.147816 -0.205574 0 281 19 0
2019-01-10 23:29:02 GMT 51.147755 -0.205103 0 284 24 0
2019-01-10 23:28:55 GMT 51.147549 -0.203724 0 284 33 0
2019-01-10 23:28:52 GMT 51.147446 -0.202961 0 281 37 0
2019-01-10 23:28:44 GMT 51.147102 -0.200389 0 275 43 0
2019-01-10 23:28:41 GMT 51.147060 -0.199776 0 272 43 0
2019-01-10 23:28:34 GMT 51.147175 -0.197487 0 258 58 0
2019-01-10 23:28:28 GMT 51.147491 -0.194970 0 255 67 0
2019-01-10 23:28:20 GMT 51.148094 -0.190639 0 258 80 0
2019-01-10 23:28:08 GMT 51.149162 -0.182926 0 258 110 0
2019-01-10 23:27:58 GMT 51.150284 -0.174742 -250 259 126 -640
2019-01-10 23:27:55 GMT 51.150761 -0.171204 -200 258 126 -640
2019-01-10 23:27:49 GMT 51.151413 -0.166550 -125 257 127 -640
2019-01-10 23:27:39 GMT 51.152802 -0.156778 -25 258 124 -576
2019-01-10 23:27:29 GMT 51.153973 -0.148163 100 259 123 -704
2019-01-10 23:27:22 GMT 51.154770 -0.142080 200 258 123 -576
2019-01-10 23:27:18 GMT 51.155182 -0.138888 225 258 123 -640
2019-01-10 23:27:14 GMT 51.155731 -0.134879 275 258 124 -704
2019-01-10 23:27:08 GMT 51.156601 -0.128644 350 257 125 -640
2019-01-10 23:27:02 GMT 51.157276 -0.123978 425 258 122 -704
2019-01-10 23:26:58 GMT 51.157883 -0.120256 475 257 123 -640
2019-01-10 23:26:53 GMT 51.158398 -0.116653 675 258 122 -704
2019-01-10 23:26:47 GMT 51.159096 -0.111389 575 258 122 -704
2019-01-10 23:26:43 GMT 51.159744 -0.106506 675 258 124 -704
2019-01-10 23:26:37 GMT 51.160355 -0.102217 700 258 126 -640
2019-01-10 23:26:32 GMT 51.161003 -0.097198 775 258 128 -640
2019-01-10 23:26:27 GMT 51.161591 -0.093013 825 258 131 -704
2019-01-10 23:26:22 GMT 51.162258 -0.087967 875 258 133 -768
2019-01-10 23:26:19 GMT 51.162643 -0.085070 925 259 134 -832
2019-01-10 23:26:16 GMT 51.163006 -0.082397 950 259 136 -832
2019-01-10 23:26:12 GMT 51.163605 -0.077944 1,025 258 139 -832
2019-01-10 23:26:09 GMT 51.164017 -0.075197 1,050 258 142 -832
2019-01-10 23:26:06 GMT 51.164402 -0.072403 1,175 258 150 -832
2019-01-10 23:26:03 GMT 51.165005 -0.067902 1,150 258 148 -768
2019-01-10 23:26:00 GMT 51.165237 -0.066071 1,175 258 148 -768
2019-01-10 23:25:56 GMT 51.166355 -0.057983 1,225 258 152 -832
2019-01-10 23:25:53 GMT 51.166355 -0.057983 1,300 258 154 -896
2019-01-10 23:25:50 GMT 51.166729 -0.055161 1,300 258 155 -896
2019-01-10 23:25:47 GMT 51.167267 -0.051072 1,350 258 159 -704
2019-01-10 23:25:43 GMT 51.167908 -0.046395 1,425 258 164 -896
2019-01-10 23:25:40 GMT 51.168228 -0.044094 1,450 258 164 -896
2019-01-10 23:25:35 GMT 51.169189 -0.037339 1,525 258 168 -896
2019-01-10 23:25:31 GMT 51.169895 -0.032349 1,600 258 171 -896
2019-01-10 23:25:28 GMT 51.170361 -0.028687 1,600 258 176 -1024
2019-01-10 23:25:25 GMT 51.170918 -0.024719 1,650 258 175 -960
2019-01-10 23:25:22 GMT 51.171387 -0.021453 1,750 258 177 -1024
2019-01-10 23:25:19 GMT 51.171890 -0.017964 1,750 258 177 -1024
2019-01-10 23:25:16 GMT 51.172642 -0.012360 1,825 258 176 -1024
2019-01-10 23:25:13 GMT 51.172989 -0.009799 1,850 258 176 -1024
2019-01-10 23:25:10 GMT 51.173447 -0.006310 1,950 258 178 -960
2019-01-10 23:25:06 GMT 51.174412 0.000534 2,025 258 178 -896
2019-01-10 23:25:03 GMT 51.174728 0.002969 2,075 258 179 -960
2019-01-10 23:25:00 GMT 51.175434 0.008163 2,100 259 179 -960
2019-01-10 23:24:57 GMT 51.175758 0.010376 2,125 259 179 -960
2019-01-10 23:24:54 GMT 51.176273 0.014572 2,200 259 179 -960
2019-01-10 23:24:51 GMT 51.176876 0.019226 2,275 259 180 -960
2019-01-10 23:24:48 GMT 51.177383 0.023160 2,300 260 181 -960
2019-01-10 23:24:45 GMT 51.177807 0.027084 2,325 260 181 -960
2019-01-10 23:24:42 GMT 51.178116 0.029322 2,350 260 182 -960
2019-01-10 23:24:39 GMT 51.178783 0.034943 2,450 263 182 -1216
2019-01-10 23:24:36 GMT 51.179157 0.037994 2,500 260 183 -1088
2019-01-10 23:24:33 GMT 51.179489 0.041124 2,575 261 183 -1088
2019-01-10 23:24:30 GMT 51.179993 0.045653 2,625 261 183 -1088
2019-01-10 23:24:27 GMT 51.180462 0.049896 2,675 264 182 -1152
2019-01-10 23:24:24 GMT 51.180862 0.054189 2,725 262 182 -1216
2019-01-10 23:24:21 GMT 51.181252 0.058441 2,775 263 182 -1216
2019-01-10 23:24:18 GMT 51.181595 0.062429 2,850 264 182 -1152
2019-01-10 23:24:15 GMT 51.181778 0.064953 2,900 278 179 -1152
2019-01-10 23:24:12 GMT 51.182327 0.073490 2,975 265 182 -1088
2019-01-10 23:24:06 GMT 51.182648 0.078049 3,075 266 182 -1024
2019-01-10 23:24:03 GMT 51.182877 0.083437 3,125 268 182 -1152
2019-01-10 23:24:00 GMT 51.182930 0.087204 3,175 272 181 -1216
2019-01-10 23:23:57 GMT 51.182556 0.095388 3,275 278 179 -1152
2019-01-10 23:23:54 GMT 51.182556 0.095388 3,325 288 177 -960
2019-01-10 23:23:51 GMT 51.182232 0.097580 3,350 288 177 -960
2019-01-10 23:23:48 GMT 51.181458 0.101846 3,400 288 177 -960
2019-01-10 23:23:45 GMT 51.180836 0.105057 3,425 289 177 -896
2019-01-10 23:23:42 GMT 51.179157 0.112991 3,500 289 178 -768
2019-01-10 23:23:39 GMT 51.179157 0.112991 3,525 290 179 -704
2019-01-10 23:23:36 GMT 51.178322 0.116653 3,575 292 180 -768
2019-01-10 23:23:33 GMT 51.177475 0.120404 3,625 295 180 -704
2019-01-10 23:23:30 GMT 51.176605 0.123745 3,650 300 180 -640
2019-01-10 23:23:27 GMT 51.175598 0.127085 3,675 298 180 -640
2019-01-10 23:23:24 GMT 51.174454 0.130277 3,700 304 180 -704
2019-01-10 23:23:21 GMT 51.172073 0.134879 3,775 323 180 -704
2019-01-10 23:23:18 GMT 51.171013 0.136414 3,800 323 180 -704
2019-01-10 23:23:15 GMT 51.168365 0.139333 3,825 331 180 -704
2019-01-10 23:23:12 GMT 51.166672 0.140744 3,875 337 182 -640
2019-01-10 23:23:09 GMT 51.161839 0.144119 3,925 338 184 -640
2019-01-10 23:23:06 GMT 51.161839 0.144119 3,925 338 184 -640
2019-01-10 23:23:03 GMT 51.158798 0.146088 3,975 338 216 0
2019-01-10 23:23:00 GMT 51.156765 0.147476 4,025 337 188 -640
2019-01-10 23:22:57 GMT 51.154858 0.148773 4,025 337 189 -640
2019-01-10 23:22:54 GMT 51.152298 0.150528 4,075 337 191 -640
2019-01-10 23:22:51 GMT 51.149872 0.152175 4,100 338 194 -640
2019-01-10 23:22:48 GMT 51.146896 0.154180 4,125 338 197 -256
2019-01-10 23:22:45 GMT 51.144745 0.155590 4,150 338 198 -256
2019-01-10 23:22:42 GMT 51.141869 0.157471 4,175 338 200 -256
2019-01-10 23:22:39 GMT 51.139297 0.159228 4,175 338 203 -256
2019-01-10 23:22:36 GMT 51.136368 0.161158 4,200 338 203 -256
2019-01-10 23:22:33 GMT 51.134079 0.162642 4,200 338 209 -384
2019-01-10 23:22:30 GMT 51.131813 0.164185 4,225 338 210 -320
2019-01-10 23:22:27 GMT 51.128136 0.166626 4,250 338 213 -384
2019-01-10 23:22:23 GMT 51.125202 0.168610 4,275 338 216 -576
2019-01-10 23:22:19 GMT 51.121078 0.171327 6,875 338 226 -640
2019-01-10 23:22:16 GMT 51.119110 0.172664 4,350 337 220 -512
2019-01-10 23:22:13 GMT 51.116264 0.174561 4,350 337 220 -512
2019-01-10 23:22:10 GMT 51.113068 0.176746 4,400 338 223 -512
2019-01-10 23:22:07 GMT 51.110634 0.178375 4,450 338 225 -704
2019-01-10 23:22:04 GMT 51.106796 0.180977 4,475 338 227 -704
2019-01-10 23:22:01 GMT 51.104908 0.182266 4,500 338 227 -768
2019-01-10 23:21:58 GMT 51.101166 0.184763 4,525 337 230 -640
2019-01-10 23:21:55 GMT 51.099289 0.186025 4,550 338 231 -640
2019-01-10 23:21:52 GMT 51.096130 0.188104 4,650 337 232 -640
2019-01-10 23:21:46 GMT 51.087021 0.194265 4,700 337 234 -960
2019-01-10 23:21:43 GMT 51.087021 0.194265 4,725 338 235 -960
2019-01-10 23:21:39 GMT 51.081722 0.197830 4,800 337 237 -896
2019-01-10 23:21:36 GMT 51.080376 0.198746 4,850 337 237 -960
2019-01-10 23:21:33 GMT 51.076904 0.201094 4,850 337 238 -1024
2019-01-10 23:21:29 GMT 51.072552 0.204010 4,950 337 240 -1024
2019-01-10 23:21:26 GMT 51.068665 0.206736 5,000 337 241 -1024
2019-01-10 23:21:22 GMT 51.066238 0.208369 5,075 337 242 -960
2019-01-10 23:21:19 GMT 51.062733 0.210800 5,150 337 244 -1024
2019-01-10 23:21:16 GMT 51.058136 0.213936 5,200 337 245 -1024
2019-01-10 23:21:13 GMT 51.056072 0.215302 5,225 337 246 -960
2019-01-10 23:21:08 GMT 51.050903 0.218836 5,325 337 248 -896
2019-01-10 23:21:05 GMT 51.048019 0.220840 5,425 337 250 -960
2019-01-10 23:21:02 GMT 51.045273 0.222696 5,400 337 250 -960
2019-01-10 23:20:58 GMT 51.040524 0.225983 5,475 337 251 -1024
2019-01-10 23:20:55 GMT 51.037308 0.228189 5,550 337 253 -1024
2019-01-10 23:20:52 GMT 51.034378 0.230193 5,575 337 253 -960
2019-01-10 23:20:48 GMT 51.026047 0.235909 5,675 337 256 -896
2019-01-10 23:20:45 GMT 51.026047 0.235909 5,725 337 258 -960
2019-01-10 23:20:42 GMT 51.023766 0.237503 5,725 337 258 -960
2019-01-10 23:20:38 GMT 51.017433 0.241852 5,825 337 261 -896
2019-01-10 23:20:35 GMT 51.014420 0.243926 5,875 337 262 -896
2019-01-10 23:20:32 GMT 51.012177 0.245438 5,900 337 262 -960
2019-01-10 23:20:28 GMT 51.006226 0.249494 6,000 337 265 -896
2019-01-10 23:20:25 GMT 51.003845 0.251052 6,250 338 266 -896
2019-01-10 23:20:22 GMT 51.000957 0.252991 6,075 338 267 -896
2019-01-10 23:20:18 GMT 50.996300 0.256119 6,125 338 268 -896
2019-01-10 23:20:15 GMT 50.992157 0.258865 6,200 336 269 -960
2019-01-10 23:20:12 GMT 50.988144 0.261742 6,225 335 268 -960
2019-01-10 23:20:09 GMT 50.985874 0.263443 6,275 333 269 -960
2019-01-10 23:20:05 GMT 50.981449 0.267181 6,350 331 268 -1152
2019-01-10 23:20:02 GMT 50.978210 0.270130 6,400 329 269 -1408
2019-01-10 23:19:59 GMT 50.975693 0.272580 6,450 329 268 -1472
2019-01-10 23:19:56 GMT 50.971024 0.277100 6,525 329 268 -1472
2019-01-10 23:19:53 GMT 50.965530 0.282453 6,675 329 268 -1472
2019-01-10 23:19:50 GMT 50.965530 0.282453 6,700 329 267 -1472
2019-01-10 23:19:47 GMT 50.961548 0.286313 6,775 329 268 -1472
2019-01-10 23:19:44 GMT 50.959476 0.288391 6,825 329 268 -1472
2019-01-10 23:19:41 GMT 50.956375 0.291435 6,925 328 266 -1536
2019-01-10 23:19:34 GMT 50.945278 0.302658 7,150 327 265 -1472
2019-01-10 23:19:31 GMT 50.945278 0.302658 7,200 327 265 -1280
2019-01-10 23:19:26 GMT 50.940903 0.307236 7,275 327 265 -1024
2019-01-10 23:19:23 GMT 50.937645 0.310745 7,325 326 264 -960
2019-01-10 23:19:20 GMT 50.934860 0.313704 7,400 326 264 -960
2019-01-10 23:19:17 GMT 50.931828 0.317001 7,400 326 264 -1024
2019-01-10 23:19:14 GMT 50.927963 0.321198 7,500 326 264 -960
2019-01-10 23:19:11 GMT 50.925659 0.323726 7,550 326 264 -960
2019-01-10 23:19:08 GMT 50.923073 0.326538 7,575 326 264 -1024
2019-01-10 23:19:05 GMT 50.919205 0.330778 7,725 326 265 -960
2019-01-10 23:19:02 GMT 50.916649 0.333633 7,650 326 263 -960
2019-01-10 23:18:59 GMT 50.912613 0.337978 7,725 326 265 -960
2019-01-10 23:18:56 GMT 50.910873 0.339982 7,775 326 265 -960
2019-01-10 23:18:53 GMT 50.907387 0.343704 7,825 326 265 -1024
2019-01-10 23:18:50 GMT 50.905060 0.346298 7,850 326 265 -1024
2019-01-10 23:18:47 GMT 50.896355 0.355911 7,975 326 265 -1024
2019-01-10 23:18:43 GMT 50.896355 0.355911 7,975 326 265 -1024
2019-01-10 23:18:40 GMT 50.894955 0.357437 8,025 325 266 -1024
2019-01-10 23:18:37 GMT 50.891968 0.360767 8,100 325 266 -1024
2019-01-10 23:18:34 GMT 50.887695 0.365524 8,175 325 266 -1024
2019-01-10 23:18:31 GMT 50.885101 0.368339 8,200 325 266 -1024
2019-01-10 23:18:28 GMT 50.882526 0.371246 8,225 325 266 -1024
2019-01-10 23:18:25 GMT 50.879883 0.374129 8,275 325 266 -1024
2019-01-10 23:18:22 GMT 50.876057 0.378418 8,350 325 266 -960
2019-01-10 23:18:19 GMT 50.873264 0.381546 8,375 325 266 -960
2019-01-10 23:18:16 GMT 50.870285 0.384827 8,425 325 266 -960
2019-01-10 23:18:13 GMT 50.867065 0.388530 8,500 325 266 -1024
2019-01-10 23:18:10 GMT 50.864502 0.391351 8,550 325 266 -1280
2019-01-10 23:18:07 GMT 50.861485 0.394745 8,600 325 267 -1408
2019-01-10 23:18:04 GMT 50.855209 0.401743 8,700 325 268 -1472
2019-01-10 23:18:01 GMT 50.855209 0.401743 8,750 325 268 -1536
2019-01-10 23:17:58 GMT 50.851959 0.405381 8,850 325 269 -1664
2019-01-10 23:17:55 GMT 50.849846 0.407791 9,000 324 268 -1792
2019-01-10 23:17:52 GMT 50.846420 0.411690 9,000 324 269 -1792
2019-01-10 23:17:49 GMT 50.843422 0.415115 9,075 324 268 -1792
2019-01-10 23:17:46 GMT 50.840630 0.418320 9,125 324 268 -1792
2019-01-10 23:17:43 GMT 50.836998 0.422592 9,300 324 269 -1408
2019-01-10 23:17:40 GMT 50.834251 0.425720 9,350 324 269 -1408
2019-01-10 23:17:37 GMT 50.831459 0.429001 9,400 324 269 -1344
2019-01-10 23:17:33 GMT 50.827408 0.433731 9,475 324 269 -1344
2019-01-10 23:17:30 GMT 50.823532 0.438191 9,575 324 271 -1280
2019-01-10 23:17:27 GMT 50.821152 0.440938 9,625 324 271 -1280
2019-01-10 23:17:24 GMT 50.818771 0.443759 9,800 324 271 -1280
2019-01-10 23:17:21 GMT 50.814934 0.448303 9,775 324 274 -1152
2019-01-10 23:17:18 GMT 50.812092 0.451660 10,125 324 287 -768
2019-01-10 23:17:15 GMT 50.809067 0.455170 9,850 323 275 -1088
2019-01-10 23:17:12 GMT 50.805771 0.459125 9,925 323 277 -960
2019-01-10 23:17:09 GMT 50.803207 0.462242 9,975 323 280 -768
2019-01-10 23:17:06 GMT 50.799664 0.466461 10,000 323 280 -768
2019-01-10 23:17:02 GMT 50.795662 0.471191 10,025 324 282 -768
2019-01-10 23:16:59 GMT 50.792542 0.474854 10,100 323 285 -768
2019-01-10 23:16:56 GMT 50.789188 0.478897 10,150 324 287 -768
2019-01-10 23:16:53 GMT 50.785744 0.482941 10,200 324 291 -832
2019-01-10 23:16:50 GMT 50.782288 0.487036 10,225 324 292 -896
2019-01-10 23:16:47 GMT 50.779320 0.490570 10,250 324 295 -896
2019-01-10 23:16:44 GMT 50.776760 0.493546 10,275 324 295 -896
2019-01-10 23:16:40 GMT 50.771873 0.499344 10,375 324 298 -1088
2019-01-10 23:16:37 GMT 50.768799 0.503006 10,425 324 298 -1152
2019-01-10 23:16:34 GMT 50.765217 0.507126 10,500 324 300 -1472
2019-01-10 23:16:30 GMT 50.759537 0.513916 10,650 323 300 -1920
2019-01-10 23:16:27 GMT 50.753437 0.521164 10,750 323 300 -1920
2019-01-10 23:16:21 GMT 50.751019 0.523987 10,925 324 301 -1728
2019-01-10 23:16:18 GMT 50.747726 0.527938 11,050 324 301 -1728
2019-01-10 23:16:15 GMT 50.744873 0.531311 11,125 324 302 -1856
2019-01-10 23:16:12 GMT 50.739487 0.537662 11,175 324 302 -1856
2019-01-10 23:16:09 GMT 50.736725 0.540924 11,300 324 302 -1920
2019-01-10 23:16:03 GMT 50.729462 0.549545 11,500 323 303 -1856
2019-01-10 23:16:00 GMT 50.727219 0.552211 11,550 323 303 -1792
2019-01-10 23:15:57 GMT 50.724564 0.555329 11,625 323 303 -1792
2019-01-10 23:15:54 GMT 50.721272 0.559311 11,725 323 303 -1792
2019-01-10 23:15:50 GMT 50.716244 0.565262 11,950 323 305 -1792
2019-01-10 23:15:47 GMT 50.711540 0.570908 11,975 324 304 -1792
2019-01-10 23:15:44 GMT 50.709778 0.572996 12,000 323 304 -1792
2019-01-10 23:15:41 GMT 50.706886 0.576401 12,175 323 305 -1792
2019-01-10 23:15:38 GMT 50.702591 0.581533 12,200 323 305 -1792
2019-01-10 23:15:35 GMT 50.699432 0.585245 12,250 323 305 -1792
2019-01-10 23:15:32 GMT 50.696274 0.588956 12,350 324 306 -1856
2019-01-10 23:15:29 GMT 50.692921 0.593033 12,475 323 307 -1792
2019-01-10 23:15:26 GMT 50.689774 0.596751 12,525 323 307 -1728
2019-01-10 23:15:23 GMT 50.685890 0.601273 12,675 324 307 -1600
2019-01-10 23:15:20 GMT 50.681980 0.605927 12,750 324 309 -1600
2019-01-10 23:15:17 GMT 50.678101 0.610558 12,825 324 309 -1664
2019-01-10 23:15:14 GMT 50.675415 0.613708 12,900 324 310 -1728
2019-01-10 23:15:11 GMT 50.671318 0.618575 13,025 323 310 -1792
2019-01-10 23:15:08 GMT 50.667206 0.623402 13,075 323 310 -1728
2019-01-10 23:15:04 GMT 50.663963 0.627334 13,175 323 312 -1664
2019-01-10 23:15:01 GMT 50.660751 0.631136 13,250 324 312 -1728
2019-01-10 23:14:58 GMT 50.656815 0.635761 13,350 324 312 -1728
2019-01-10 23:14:54 GMT 50.652374 0.641038 13,475 324 312 -1856
2019-01-10 23:14:51 GMT 50.649208 0.644779 13,550 324 314 -1920
2019-01-10 23:14:48 GMT 50.645481 0.649158 14,725 323 316 -1792
2019-01-10 23:14:45 GMT 50.641251 0.654192 13,875 324 314 -1920
2019-01-10 23:14:42 GMT 50.638824 0.657084 13,900 324 314 -1920
2019-01-10 23:14:39 GMT 50.635574 0.660914 13,975 324 314 -1984
2019-01-10 23:14:36 GMT 50.630676 0.666697 14,075 324 314 -1920
2019-01-10 23:14:33 GMT 50.628399 0.669349 14,150 324 313 -1920
2019-01-10 23:14:29 GMT 50.622440 0.676401 14,300 324 314 -1856
2019-01-10 23:14:26 GMT 50.619690 0.679634 14,350 324 315 -1856
2019-01-10 23:14:23 GMT 50.616486 0.683393 14,475 324 315 -1856
2019-01-10 23:14:20 GMT 50.611828 0.688872 14,575 324 315 -1856
2019-01-10 23:14:17 GMT 50.609776 0.691248 14,650 324 315 -1792
2019-01-10 23:14:13 GMT 50.605541 0.696296 14,775 323 316 -1792
2019-01-10 23:14:10 GMT 50.601562 0.701029 14,825 323 316 -1792
2019-01-10 23:14:07 GMT 50.597580 0.705797 14,950 323 317 -1856
2019-01-10 23:14:04 GMT 50.593048 0.711509 15,100 321 318 -1920
2019-01-10 23:14:01 GMT 50.590736 0.714408 15,175 321 318 -1920
2019-01-10 23:13:58 GMT 50.587875 0.718231 15,225 320 319 -1920
2019-01-10 23:13:55 GMT 50.583523 0.723984 15,350 320 319 -1984
2019-01-10 23:13:52 GMT 50.580448 0.728141 15,525 320 319 -1984
2019-01-10 23:13:49 GMT 50.577797 0.731630 15,575 321 323 -2048
2019-01-10 23:13:46 GMT 50.574165 0.736455 15,575 320 320 -1984
2019-01-10 23:13:43 GMT 50.571465 0.739944 15,675 321 320 -1920
2019-01-10 23:13:40 GMT 50.564201 0.749520 15,900 321 320 -1728
2019-01-10 23:13:37 GMT 50.564201 0.749520 15,925 321 321 -1664
2019-01-10 23:13:34 GMT 50.561050 0.753648 15,950 321 322 -1664
2019-01-10 23:13:31 GMT 50.557362 0.758354 17,050 321 319 -2048
2019-01-10 23:13:28 GMT 50.549492 0.768598 16,200 321 322 -2112
2019-01-10 23:13:25 GMT 50.549492 0.768598 16,275 321 322 -2240
2019-01-10 23:13:22 GMT 50.542419 0.777716 16,425 321 322 -2432
2019-01-10 23:13:19 GMT 50.542419 0.777716 16,525 321 321 -2432
2019-01-10 23:13:16 GMT 50.538551 0.782702 16,800 321 319 -2176
2019-01-10 23:13:13 GMT 50.536552 0.785300 16,725 321 320 -2496
2019-01-10 23:13:10 GMT 50.532623 0.790365 16,800 321 320 -2432
2019-01-10 23:13:07 GMT 50.528320 0.795931 16,925 321 319 -2432
2019-01-10 23:13:04 GMT 50.526077 0.798884 17,175 321 319 -2368
2019-01-10 23:13:01 GMT 50.522690 0.803231 17,225 321 319 -2304
2019-01-10 23:12:58 GMT 50.518768 0.808237 17,300 321 319 -2176
2019-01-10 23:12:55 GMT 50.515602 0.812320 17,375 321 319 -2048
2019-01-10 23:12:52 GMT 50.509048 0.820722 17,550 321 319 -1728
2019-01-10 23:12:49 GMT 50.509048 0.820722 17,650 321 320 -1728
2019-01-10 23:12:46 GMT 50.505844 0.824770 17,825 321 320 -1728
2019-01-10 23:12:43 GMT 50.502426 0.829097 17,925 321 322 -1728
2019-01-10 23:12:40 GMT 50.499207 0.833154 17,925 321 322 -1728
2019-01-10 23:12:36 GMT 50.493538 0.840380 18,075 322 322 -1728
2019-01-10 23:12:33 GMT 50.490791 0.843869 18,075 322 324 -1728
2019-01-10 23:12:30 GMT 50.488045 0.847358 18,150 322 325 -1728
2019-01-10 23:12:27 GMT 50.483597 0.852958 18,325 322 326 -1664
2019-01-10 23:12:24 GMT 50.475800 0.862872 18,425 322 338 -1856
2019-01-10 23:12:21 GMT 50.475800 0.862872 18,525 322 329 -1408
2019-01-10 23:12:18 GMT 50.472794 0.866691 18,550 322 330 -1344
2019-01-10 23:12:15 GMT 50.468258 0.872448 18,550 322 330 -1408
2019-01-10 23:12:12 GMT 50.462677 0.879484 18,700 321 333 -1472
2019-01-10 23:12:06 GMT 50.458878 0.884327 18,825 322 334 -1536
2019-01-10 23:12:03 GMT 50.454060 0.890412 18,850 322 334 -1600
2019-01-10 23:12:00 GMT 50.451691 0.893362 18,900 322 335 -1728
2019-01-10 23:11:57 GMT 50.442398 0.905071 19,075 322 337 -1792
2019-01-10 23:11:54 GMT 50.442398 0.905071 19,275 322 338 -1856
2019-01-10 23:11:51 GMT 50.440838 0.907040 19,200 322 338 -1856
2019-01-10 23:11:47 GMT 50.434135 0.915428 19,375 322 339 -1920
2019-01-10 23:11:44 GMT 50.431732 0.918515 19,425 322 339 -1920
2019-01-10 23:11:41 GMT 50.428848 0.922129 19,500 322 339 -1920
2019-01-10 23:11:36 GMT 50.420975 0.932031 19,725 322 340 -1984
2019-01-10 23:11:33 GMT 50.418961 0.934633 19,775 322 340 -1984
2019-01-10 23:11:30 GMT 50.414955 0.939628 19,825 322 341 -1984
2019-01-10 23:11:26 GMT 50.410309 0.945547 20,025 322 341 -2112
2019-01-10 23:11:23 GMT 50.406067 0.950837 20,075 322 342 -2112
2019-01-10 23:11:20 GMT 50.402435 0.955449 20,175 322 342 -2048
2019-01-10 23:11:17 GMT 50.397686 0.961378 24,000 322 357 0
2019-01-10 23:11:14 GMT 50.395294 0.964412 20,575 322 345 -1792
2019-01-10 23:11:11 GMT 50.391586 0.969024 20,625 322 343 -2048
2019-01-10 23:11:08 GMT 50.386642 0.975181 20,650 322 344 -1984
2019-01-10 23:11:04 GMT 50.382835 0.979936 20,800 322 344 -1856
2019-01-10 23:11:01 GMT 50.377808 0.986171 20,875 322 345 -1792
2019-01-10 23:10:58 GMT 50.375153 0.989565 20,925 322 345 -1792
2019-01-10 23:10:54 GMT 50.370071 0.995853 21,075 322 346 -1664
2019-01-10 23:10:51 GMT 50.366867 0.999830 21,125 322 347 -1664
2019-01-10 23:10:48 GMT 50.363434 1.004165 21,250 322 348 -1600
2019-01-10 23:10:45 GMT 50.358814 1.009851 21,400 322 350 -1792
2019-01-10 23:10:42 GMT 50.353958 1.015874 21,425 322 350 -1792
2019-01-10 23:10:39 GMT 50.351227 1.019279 21,525 322 351 -2048
2019-01-10 23:10:36 GMT 50.345947 1.025848 21,625 322 351 -2048
2019-01-10 23:10:33 GMT 50.343658 1.028667 21,700 322 352 -1856
2019-01-10 23:10:30 GMT 50.339584 1.033727 21,975 322 353 -1984
2019-01-10 23:10:27 GMT 50.335026 1.039321 22,325 322 353 -1984
2019-01-10 23:10:24 GMT 50.331673 1.043478 22,000 322 353 -2048
2019-01-10 23:10:20 GMT 50.325485 1.051074 22,050 322 353 -1984
2019-01-10 23:10:17 GMT 50.322086 1.055281 22,425 322 354 -2368
2019-01-10 23:10:14 GMT 50.318779 1.059364 22,350 322 355 -2432
2019-01-10 23:10:11 GMT 50.316055 1.062710 22,450 322 354 -2368
2019-01-10 23:10:08 GMT 50.311386 1.068565 22,525 322 354 -2304
2019-01-10 23:10:04 GMT 50.305939 1.075431 22,775 322 355 -2304
2019-01-10 23:10:01 GMT 50.302952 1.079110 22,975 322 355 -2368
2019-01-10 23:09:58 GMT 50.298523 1.084611 22,900 322 355 -2368
2019-01-10 23:09:54 GMT 50.294151 1.090096 23,125 322 356 -2304
2019-01-10 23:09:51 GMT 50.289265 1.096257 23,225 322 356 -2240
2019-01-10 23:09:48 GMT 50.284657 1.101973 23,350 322 356 -2240
2019-01-10 23:09:44 GMT 50.280762 1.106873 23,525 322 356 -2112
2019-01-10 23:09:41 GMT 50.276688 1.112004 23,625 322 357 -1920
2019-01-10 23:09:38 GMT 50.273624 1.115855 23,650 322 357 -1856
2019-01-10 23:09:35 GMT 50.268738 1.122016 23,825 322 357 -1216
2019-01-10 23:09:32 GMT 50.264126 1.127732 23,900 322 357 -512
2019-01-10 23:09:29 GMT 50.261894 1.130627 23,950 322 357 -512
2019-01-10 23:09:26 GMT 50.252861 1.141910 23,975 322 358 -256
2019-01-10 23:09:23 GMT 50.252861 1.141910 24,000 322 357 0
2019-01-10 23:09:20 GMT 50.245605 1.151035 24,000 322 359 0
2019-01-10 23:09:14 GMT 50.242294 1.155198 24,000 322 359 0
2019-01-10 23:09:11 GMT 50.238419 1.159997 24,000 322 359 0
2019-01-10 23:09:08 GMT 50.231873 1.168165 24,000 322 359 0
2019-01-10 23:09:02 GMT 50.227615 1.173513 24,000 322 357 0
2019-01-10 23:08:59 GMT 50.221848 1.180741 24,000 322 359 0
2019-01-10 23:08:53 GMT 50.214706 1.189704 24,000 322 358 0
2019-01-10 23:08:50 GMT 50.211411 1.193824 24,000 322 358 64
2019-01-10 23:08:47 GMT 50.207241 1.199069 24,000 322 358 0
2019-01-10 23:08:44 GMT 50.201843 1.205750 24,000 322 358 64
2019-01-10 23:08:41 GMT 50.200352 1.207605 24,000 322 358 0
2019-01-10 23:08:38 GMT 50.196205 1.212802 24,000 322 359 0
2019-01-10 23:08:35 GMT 50.192669 1.217255 24,000 322 358 0
2019-01-10 23:08:31 GMT 50.186600 1.224831 24,000 322 359 0
2019-01-10 23:08:28 GMT 50.181152 1.231553 24,000 322 359 0
2019-01-10 23:08:25 GMT 50.179634 1.233438 24,000 322 359 0
2019-01-10 23:08:22 GMT 50.174652 1.239648 24,000 322 359 0
2019-01-10 23:08:19 GMT 50.169533 1.245983 24,000 322 359 0
2019-01-10 23:08:16 GMT 50.167763 1.248210 24,000 322 357 0
2019-01-10 23:08:13 GMT 50.163345 1.253670 24,000 322 358 0
2019-01-10 23:08:10 GMT 50.159683 1.258151 24,000 322 358 0
2019-01-10 23:08:07 GMT 50.155289 1.263576 24,000 322 358 0
2019-01-10 23:08:01 GMT 50.147003 1.273894 24,000 322 357 0
2019-01-10 23:07:58 GMT 50.142857 1.279016 24,000 322 357 0
2019-01-10 23:07:55 GMT 50.139633 1.282943 24,000 322 357 64
2019-01-10 23:07:51 GMT 50.134571 1.289260 24,000 322 357 0
2019-01-10 23:07:48 GMT 50.131035 1.293640 24,000 322 356 0
2019-01-10 23:07:45 GMT 50.127686 1.297760 24,000 322 356 0
2019-01-10 23:07:42 GMT 50.122189 1.304552 24,000 322 356 0
2019-01-10 23:07:39 GMT 50.118301 1.309325 24,000 322 356 0
2019-01-10 23:07:36 GMT 50.115326 1.313011 24,000 322 356 0
2019-01-10 23:07:33 GMT 50.107910 1.322190 24,000 322 356 0
2019-01-10 23:07:30 GMT 50.107910 1.322190 24,000 322 355 0
2019-01-10 23:07:27 GMT 50.103790 1.327322 24,000 322 355 -64
2019-01-10 23:07:24 GMT 50.098389 1.333972 24,000 322 355 -64
2019-01-10 23:07:21 GMT 50.096100 1.336790 24,000 322 355 0
2019-01-10 23:07:18 GMT 50.091419 1.342559 24,025 322 355 0
2019-01-10 23:07:15 GMT 50.087601 1.347236 24,000 322 355 64
2019-01-10 23:07:10 GMT 50.082108 1.354065 24,000 322 355 64
2019-01-10 23:07:07 GMT 50.077454 1.359781 24,000 322 355 64
2019-01-10 23:07:04 GMT 50.074940 1.362824 24,000 322 355 64
2019-01-10 23:07:00 GMT 50.066574 1.373219 24,000 322 356 64
2019-01-10 23:06:54 GMT 50.061813 1.379073 24,000 322 357 -64
2019-01-10 23:06:51 GMT 50.057945 1.383906 24,000 322 357 -64
2019-01-10 23:06:48 GMT 50.052429 1.390710 24,000 322 357 -64
2019-01-10 23:06:45 GMT 50.049957 1.393746 24,000 322 357 -64
2019-01-10 23:06:41 GMT 50.044739 1.400251 24,000 322 357 -64
2019-01-10 23:06:38 GMT 50.040024 1.406033 24,025 322 357 -64
2019-01-10 23:06:35 GMT 50.037003 1.409719 24,025 322 356 64
2019-01-10 23:06:32 GMT 50.033134 1.414490 24,025 322 356 128
2019-01-10 23:06:29 GMT 50.029549 1.418944 24,000 322 356 0
2019-01-10 23:06:26 GMT 50.024094 1.425693 24,000 322 356 64
2019-01-10 23:06:23 GMT 50.021347 1.429018 24,000 322 356 64
2019-01-10 23:06:20 GMT 50.018051 1.433122 24,000 322 356 -64
2019-01-10 23:06:17 GMT 50.013908 1.438244 24,000 322 357 -64
2019-01-10 23:06:14 GMT 50.009491 1.443690 24,000 322 357 0
2019-01-10 23:06:10 GMT 50.004822 1.449473 24,000 322 358 0
2019-01-10 23:06:07 GMT 50.000641 1.454575 24,000 322 358 64
2019-01-10 23:06:04 GMT 49.997383 1.458584 24,000 322 358 64
2019-01-10 23:06:01 GMT 49.992874 1.464073 24,000 322 358 0
2019-01-10 23:05:58 GMT 49.988167 1.469867 24,000 322 358 0
2019-01-10 23:05:55 GMT 49.981228 1.478329 24,000 322 359 0
2019-01-10 23:05:52 GMT 49.981228 1.478329 24,000 322 359 0
2019-01-10 23:05:49 GMT 49.977356 1.483082 24,000 322 359 -64
2019-01-10 23:05:46 GMT 49.974014 1.487163 24,000 322 359 0
2019-01-10 23:05:43 GMT 49.970123 1.491972 24,000 322 359 0
2019-01-10 23:05:39 GMT 49.963448 1.500153 24,000 322 359 -64
2019-01-10 23:05:36 GMT 49.960144 1.504187 24,000 322 359 -64
2019-01-10 23:05:33 GMT 49.957031 1.507946 24,000 322 359 -64
2019-01-10 23:05:30 GMT 49.952911 1.513078 24,000 322 358 64
2019-01-10 23:05:26 GMT 49.946228 1.521245 24,000 322 358 64
2019-01-10 23:05:23 GMT 49.942451 1.525838 24,000 322 358 64
2019-01-10 23:05:20 GMT 49.939610 1.529401 24,000 322 357 64
2019-01-10 23:05:17 GMT 49.936584 1.533038 24,025 322 359 0
2019-01-10 23:05:13 GMT 49.930481 1.540543 24,000 322 358 -64
2019-01-10 23:05:08 GMT 49.924156 1.548330 24,000 322 358 -128
2019-01-10 23:05:05 GMT 49.920013 1.553452 24,000 322 358 -128
2019-01-10 23:05:02 GMT 49.916382 1.557906 24,000 322 358 -64
2019-01-10 23:04:59 GMT 49.912796 1.562286 24,025 322 358 -64
2019-01-10 23:04:56 GMT 49.907822 1.568443 24,025 322 358 64
2019-01-10 23:04:52 GMT 49.903908 1.573198 24,025 322 358 128
2019-01-10 23:04:48 GMT 49.897575 1.580918 24,000 322 358 64
2019-01-10 23:04:45 GMT 49.894501 1.584704 24,000 322 358 64
2019-01-10 23:04:42 GMT 49.890358 1.589751 24,000 322 358 64
2019-01-10 23:04:38 GMT 49.884541 1.596952 24,000 322 359 -64
2019-01-10 23:04:35 GMT 49.880165 1.602297 24,000 322 359 -64
2019-01-10 23:04:32 GMT 49.876465 1.606823 24,000 322 359 -64
2019-01-10 23:04:28 GMT 49.870762 1.613803 24,000 322 358 64
2019-01-10 23:04:25 GMT 49.867874 1.617291 24,000 322 359 0
2019-01-10 23:04:21 GMT 49.858978 1.628217 24,000 322 359 0
2019-01-10 23:04:17 GMT 49.858978 1.628217 24,000 322 359 0
2019-01-10 23:04:14 GMT 49.854813 1.633277 24,000 322 358 64
2019-01-10 23:04:11 GMT 49.846481 1.643396 24,000 322 358 64
2019-01-10 23:04:08 GMT 49.846481 1.643396 24,000 322 358 64
2019-01-10 23:04:05 GMT 49.842037 1.648840 24,000 322 358 64
2019-01-10 23:04:02 GMT 49.837337 1.654556 24,000 322 358 0
2019-01-10 23:03:59 GMT 49.834263 1.658342 24,000 322 356 -128
2019-01-10 23:03:56 GMT 49.829144 1.664577 24,000 322 357 0
2019-01-10 23:03:53 GMT 49.826023 1.668437 24,000 322 357 -64
2019-01-10 23:03:50 GMT 49.822720 1.672446 24,000 322 357 -64
2019-01-10 23:03:47 GMT 49.818283 1.677873 24,000 322 356 -64
2019-01-10 23:03:44 GMT 49.814667 1.682209 24,000 322 356 0
2019-01-10 23:03:41 GMT 49.810802 1.686995 24,000 322 356 0
2019-01-10 23:03:38 GMT 49.807217 1.691301 24,000 322 356 0
2019-01-10 23:03:35 GMT 49.803074 1.696348 24,000 322 356 64
2019-01-10 23:03:32 GMT 49.799538 1.700728 24,000 322 356 0
2019-01-10 23:03:29 GMT 49.795624 1.705483 24,000 322 356 0
2019-01-10 23:03:26 GMT 49.791248 1.710824 24,000 322 356 0
2019-01-10 23:03:23 GMT 49.788689 1.713867 24,000 322 356 0
2019-01-10 23:03:20 GMT 49.784317 1.719288 24,000 322 356 0
2019-01-10 23:03:17 GMT 49.780403 1.723963 24,000 322 356 0
2019-01-10 23:03:13 GMT 49.774933 1.730708 24,000 322 356 0
2019-01-10 23:03:10 GMT 49.770535 1.736063 24,000 322 357 64
2019-01-10 23:03:07 GMT 49.767460 1.739774 24,000 322 358 64
2019-01-10 23:03:04 GMT 49.763901 1.744152 24,000 322 358 64
2019-01-10 23:03:01 GMT 49.759415 1.749573 24,000 322 358 64
2019-01-10 23:02:58 GMT 49.755543 1.754324 24,000 322 358 64
2019-01-10 23:02:54 GMT 49.750282 1.760708 24,000 322 358 -64
2019-01-10 23:02:51 GMT 49.746651 1.765087 24,000 322 358 -64
2019-01-10 23:02:48 GMT 49.742249 1.770461 24,000 322 358 -64
2019-01-10 23:02:42 GMT 49.735245 1.778990 24,000 322 358 -64
2019-01-10 23:02:39 GMT 49.725082 1.791350 24,000 322 357 0
2019-01-10 23:02:36 GMT 49.725082 1.791350 24,000 322 357 0
2019-01-10 23:02:33 GMT 49.722748 1.794169 24,000 322 354 0
2019-01-10 23:02:29 GMT 49.717758 1.800240 24,000 322 357 0
2019-01-10 23:02:26 GMT 49.709690 1.809923 24,000 322 357 0
2019-01-10 23:02:23 GMT 49.709690 1.809923 24,000 322 356 0
2019-01-10 23:02:19 GMT 49.703613 1.817298 24,000 322 356 0
2019-01-10 23:02:16 GMT 49.700287 1.821281 24,000 322 356 0
2019-01-10 23:02:13 GMT 49.696747 1.825660 24,000 322 356 0
2019-01-10 23:02:08 GMT 49.689514 1.834355 24,000 322 356 0
2019-01-10 23:02:05 GMT 49.686787 1.837686 24,000 322 356 0
2019-01-10 23:02:02 GMT 49.682644 1.842660 24,000 322 352 0
2019-01-10 23:01:59 GMT 49.672943 1.854377 24,000 322 355 0
2019-01-10 23:01:56 GMT 49.672943 1.854377 24,000 322 355 0
2019-01-10 23:01:53 GMT 49.669968 1.857990 24,000 322 354 0
2019-01-10 23:01:49 GMT 49.666676 1.861960 24,000 322 354 0
2019-01-10 23:01:46 GMT 49.663044 1.866340 24,000 322 354 0
2019-01-10 23:01:43 GMT 49.658390 1.871907 24,000 322 354 -64
2019-01-10 23:01:40 GMT 49.653992 1.877289 24,000 322 353 -64
2019-01-10 23:01:37 GMT 49.651016 1.880903 24,000 322 353 -64
2019-01-10 23:01:34 GMT 49.646301 1.886540 24,025 322 353 64
2019-01-10 23:01:31 GMT 49.641399 1.892469 24,025 322 353 64
2019-01-10 23:01:28 GMT 49.639160 1.895214 24,025 322 353 64
2019-01-10 23:01:24 GMT 49.630829 1.905311 24,000 322 352 0
2019-01-10 23:01:21 GMT 49.627480 1.909394 24,000 322 352 0
2019-01-10 23:01:17 GMT 49.622360 1.915596 24,000 322 353 1024
2019-01-10 23:01:14 GMT 49.620667 1.917692 24,000 322 352 -64
2019-01-10 23:01:11 GMT 49.617645 1.921379 24,000 322 352 -64
2019-01-10 23:01:08 GMT 49.613838 1.926022 24,000 322 352 -64
2019-01-10 23:01:04 GMT 49.606796 1.934678 24,025 322 352 64
2019-01-10 23:01:01 GMT 49.604370 1.937641 24,000 322 352 384
2019-01-10 23:00:58 GMT 49.601131 1.941685 24,000 322 352 384
2019-01-10 23:00:54 GMT 49.593494 1.951038 23,950 322 352 896
2019-01-10 23:00:51 GMT 49.591049 1.954049 23,900 323 352 1152
2019-01-10 23:00:48 GMT 49.587524 1.958313 23,875 323 352 1216
2019-01-10 23:00:45 GMT 49.583954 1.962577 23,825 325 353 1536
2019-01-10 23:00:42 GMT 49.578552 1.968649 23,700 326 353 1664
2019-01-10 23:00:39 GMT 49.575108 1.972269 23,650 327 354 1792
2019-01-10 23:00:36 GMT 49.569569 1.977762 23,500 329 356 2112
2019-01-10 23:00:33 GMT 49.565323 1.981731 23,500 329 356 2112
2019-01-10 23:00:30 GMT 49.563858 1.983177 23,375 329 359 2496
2019-01-10 23:00:27 GMT 49.555389 1.991127 22,675 329 364 2368
2019-01-10 23:00:21 GMT 49.551132 1.995103 22,900 329 363 3136
2019-01-10 23:00:18 GMT 49.542526 2.003198 22,750 329 364 2688
2019-01-10 23:00:15 GMT 49.535538 2.009756 22,625 329 364 2432
2019-01-10 23:00:12 GMT 49.535538 2.009756 22,525 329 364 2240
2019-01-10 23:00:09 GMT 49.533966 2.011221 22,375 329 363 2240
2019-01-10 23:00:06 GMT 49.529388 2.015558 22,225 329 363 2240
2019-01-10 23:00:03 GMT 49.523899 2.020668 22,150 329 362 2368
2019-01-10 22:59:59 GMT 49.519638 2.024737 22,025 329 362 2432
2019-01-10 22:59:56 GMT 49.514145 2.029869 21,900 329 361 2560
2019-01-10 22:59:53 GMT 49.511124 2.032688 21,775 329 361 2624
2019-01-10 22:59:50 GMT 49.506302 2.037222 21,600 329 360 2688
2019-01-10 22:59:47 GMT 49.500904 2.042344 21,500 329 360 2688
2019-01-10 22:59:43 GMT 49.496853 2.046129 21,325 329 360 2624
2019-01-10 22:59:40 GMT 49.490894 2.051697 21,125 329 360 2496
2019-01-10 22:59:37 GMT 49.488102 2.054369 21,050 329 359 2496
2019-01-10 22:59:34 GMT 49.482655 2.059417 20,900 329 359 2560
2019-01-10 22:59:29 GMT 49.476562 2.065141 20,700 329 359 2688
2019-01-10 22:59:25 GMT 49.467667 2.073521 20,425 329 358 2944
2019-01-10 22:59:21 GMT 49.465393 2.075693 20,175 329 359 3072
2019-01-10 22:59:18 GMT 49.460915 2.079905 20,175 329 359 3072
2019-01-10 22:59:15 GMT 49.455276 2.085234 19,975 329 359 3328
2019-01-10 22:59:12 GMT 49.445847 2.094052 19,550 329 357 2624
2019-01-10 22:59:08 GMT 49.445847 2.094052 19,650 329 360 3392
2019-01-10 22:59:04 GMT 49.439117 2.100340 19,325 329 362 3328
2019-01-10 22:59:01 GMT 49.435776 2.103520 19,175 329 362 3200
2019-01-10 22:58:58 GMT 49.432388 2.106701 19,050 329 363 3136
2019-01-10 22:58:55 GMT 49.427536 2.111254 18,850 329 363 2560
2019-01-10 22:58:52 GMT 49.422695 2.115736 18,775 329 363 2496
2019-01-10 22:58:48 GMT 49.416824 2.121277 18,575 329 362 2304
2019-01-10 22:58:45 GMT 49.414967 2.122963 17,650 329 362 2240
2019-01-10 22:58:42 GMT 49.409847 2.127806 18,400 329 360 2304
2019-01-10 22:58:39 GMT 49.404968 2.132404 18,275 329 359 2432
2019-01-10 22:58:36 GMT 49.399658 2.137334 18,150 329 358 2496
2019-01-10 22:58:31 GMT 49.394714 2.141982 17,775 329 357 2624
2019-01-10 22:58:27 GMT 49.387527 2.148743 17,725 329 356 2752
2019-01-10 22:58:24 GMT 49.384552 2.151489 17,700 329 356 2752
2019-01-10 22:58:21 GMT 49.380066 2.155715 17,350 329 355 2880
2019-01-10 22:58:18 GMT 49.376724 2.158813 17,350 329 355 2880
2019-01-10 22:58:15 GMT 49.372002 2.163295 17,225 329 355 3008
2019-01-10 22:58:12 GMT 49.363907 2.170856 16,950 329 355 2944
2019-01-10 22:58:09 GMT 49.363907 2.170856 16,950 329 355 2944
2019-01-10 22:58:06 GMT 49.359104 2.175438 16,850 329 355 2880
2019-01-10 22:58:03 GMT 49.355240 2.179051 16,650 329 355 2816
2019-01-10 22:57:59 GMT 49.349258 2.184730 16,450 329 354 2816
2019-01-10 22:57:56 GMT 49.340717 2.192857 16,200 329 354 2688
2019-01-10 22:57:53 GMT 49.340717 2.192857 16,150 329 353 2688
2019-01-10 22:57:50 GMT 49.335644 2.197627 16,000 329 352 2560
2019-01-10 22:57:47 GMT 49.331825 2.201241 15,875 329 352 2496
2019-01-10 22:57:44 GMT 49.327404 2.205505 15,825 329 351 2432
2019-01-10 22:57:41 GMT 49.323586 2.209192 15,700 328 350 2368
2019-01-10 22:57:38 GMT 49.319164 2.213384 15,525 328 348 2368
2019-01-10 22:57:35 GMT 49.316555 2.215913 15,450 328 347 2368
2019-01-10 22:57:29 GMT 49.308472 2.223675 15,250 328 345 2688
2019-01-10 22:57:26 GMT 49.303848 2.228112 15,075 328 343 2880
2019-01-10 22:57:23 GMT 49.294956 2.236657 14,700 329 342 3136
2019-01-10 22:57:17 GMT 49.291809 2.239591 14,500 331 340 3072
2019-01-10 22:57:14 GMT 49.287739 2.243235 13,550 331 340 3072
2019-01-10 22:57:10 GMT 49.277618 2.251211 14,000 336 335 2944
2019-01-10 22:57:07 GMT 49.272797 2.254438 14,000 336 335 2944
2019-01-10 22:57:03 GMT 49.272797 2.254438 13,900 338 333 2816
2019-01-10 22:57:00 GMT 49.266129 2.258606 13,700 339 331 2816
2019-01-10 22:56:57 GMT 49.262741 2.260578 13,425 339 328 3136
2019-01-10 22:56:54 GMT 49.258553 2.263111 13,300 339 328 3072
2019-01-10 22:56:49 GMT 49.252731 2.266508 13,225 339 328 3136
2019-01-10 22:56:46 GMT 49.247314 2.269804 12,975 339 327 3392
2019-01-10 22:56:43 GMT 49.244614 2.271423 12,725 340 297 0
2019-01-10 22:56:39 GMT 49.238297 2.275156 12,675 339 327 3328
2019-01-10 22:56:36 GMT 49.231201 2.279381 12,450 339 327 3136
2019-01-10 22:56:33 GMT 49.229919 2.280156 12,125 340 297 0
2019-01-10 22:56:29 GMT 49.223312 2.284000 12,125 339 324 2752
2019-01-10 22:56:26 GMT 49.219402 2.286313 11,975 340 324 2688
2019-01-10 22:56:23 GMT 49.215538 2.288626 11,875 340 322 2560
2019-01-10 22:56:19 GMT 49.208817 2.292551 11,725 340 319 2240
2019-01-10 22:56:16 GMT 49.204643 2.294986 11,550 340 316 1792
2019-01-10 22:56:12 GMT 49.199707 2.297833 11,475 340 314 1600
2019-01-10 22:56:09 GMT 49.197052 2.299382 11,400 340 311 1408
2019-01-10 22:56:06 GMT 49.192493 2.301997 11,350 340 310 1344
2019-01-10 22:56:02 GMT 49.187668 2.304805 11,225 340 300 1344
2019-01-10 22:55:59 GMT 49.182404 2.307833 11,125 340 295 1408
2019-01-10 22:55:56 GMT 49.178650 2.310016 11,025 340 290 1472
2019-01-10 22:55:53 GMT 49.175083 2.312044 10,975 340 288 1472
2019-01-10 22:55:50 GMT 49.170776 2.314524 10,925 340 285 1536
2019-01-10 22:55:46 GMT 49.167171 2.316597 10,850 340 279 1472
2019-01-10 22:55:42 GMT 49.162235 2.319344 10,750 340 275 1536
2019-01-10 22:55:39 GMT 49.158737 2.321355 10,725 340 274 1536
2019-01-10 22:55:36 GMT 49.155205 2.323319 10,500 340 264 1920
2019-01-10 22:55:32 GMT 49.151016 2.325704 10,475 340 262 2112
2019-01-10 22:55:29 GMT 49.147156 2.327904 10,425 340 260 2368
2019-01-10 22:55:25 GMT 49.143082 2.330228 10,200 340 255 3072
2019-01-10 22:55:22 GMT 49.139099 2.332482 10,000 340 254 3072
2019-01-10 22:55:18 GMT 49.133881 2.335369 9,700 340 252 3136
2019-01-10 22:55:15 GMT 49.130493 2.337341 9,625 340 251 3136
2019-01-10 22:55:12 GMT 49.127602 2.338931 9,375 340 250 3200
2019-01-10 22:55:07 GMT 49.122528 2.341778 9,300 340 249 3264
2019-01-10 22:55:04 GMT 49.120247 2.343051 9,075 340 248 3392
2019-01-10 22:55:01 GMT 49.115871 2.345581 8,900 340 246 3584
2019-01-10 22:54:57 GMT 49.112053 2.347749 8,625 340 246 3776
2019-01-10 22:54:54 GMT 49.109299 2.349314 8,550 340 246 3776
2019-01-10 22:54:51 GMT 49.106094 2.351219 8,175 339 246 4224
2019-01-10 22:54:48 GMT 49.102936 2.353046 8,000 339 246 4608
2019-01-10 22:54:45 GMT 49.098633 2.355581 7,750 339 248 4736
2019-01-10 22:54:41 GMT 49.094967 2.357724 7,375 339 251 4672
2019-01-10 22:54:38 GMT 49.091766 2.359666 7,225 339 252 4544
2019-01-10 22:54:34 GMT 49.088078 2.361844 6,975 339 253 4096
2019-01-10 22:54:31 GMT 49.083847 2.364314 6,700 340 254 3904
2019-01-10 22:54:28 GMT 49.081047 2.365964 6,550 340 254 3840
2019-01-10 22:54:24 GMT 49.076797 2.368399 6,275 340 254 3776
2019-01-10 22:54:20 GMT 49.071224 2.371601 6,050 340 254 3520
2019-01-10 22:54:17 GMT 49.069504 2.372613 5,875 340 253 3328
2019-01-10 22:54:14 GMT 49.065594 2.374854 5,675 340 251 2944
2019-01-10 22:54:08 GMT 49.058659 2.378829 5,375 339 246 2368
2019-01-10 22:54:04 GMT 49.054367 2.381427 5,175 336 240 2048
2019-01-10 22:54:00 GMT 49.051117 2.383681 5,075 334 237 2048
2019-01-10 22:53:57 GMT 49.048416 2.385794 5,025 333 236 2048
2019-01-10 22:53:54 GMT 49.045250 2.388514 4,850 330 230 2176
2019-01-10 22:53:50 GMT 49.041897 2.391478 4,650 330 222 2304
2019-01-10 22:53:47 GMT 49.038895 2.394174 4,650 330 222 2304
2019-01-10 22:53:43 GMT 49.034363 2.398118 4,350 330 212 2240
2019-01-10 22:53:38 GMT 49.031296 2.400794 4,125 325 204 1920
2019-01-10 22:53:35 GMT 49.028118 2.403765 4,075 326 205 2048
2019-01-10 22:53:28 GMT 49.023651 2.408969 3,875 313 201 1408
2019-01-10 22:53:25 GMT 49.021694 2.412366 3,800 306 198 1152
2019-01-10 22:53:22 GMT 49.020309 2.415302 3,750 297 194 1152
2019-01-10 22:53:19 GMT 49.018574 2.420534 3,650 280 188 1152
2019-01-10 22:53:16 GMT 49.017460 2.425666 3,625 286 191 1152
2019-01-10 22:53:13 GMT 49.017132 2.427689 3,550 278 187 1152
2019-01-10 22:53:09 GMT 49.016739 2.432697 3,475 271 184 1152
2019-01-10 22:53:05 GMT 49.016739 2.437908 3,400 268 182 1152
2019-01-10 22:53:02 GMT 49.016922 2.441430 3,375 266 179 1216
2019-01-10 22:52:58 GMT 49.017242 2.446923 3,250 265 173 1280
2019-01-10 22:52:54 GMT 49.017551 2.451830 3,150 265 168 1536
2019-01-10 22:52:49 GMT 49.017838 2.457275 2,975 265 163 1792
2019-01-10 22:52:46 GMT 49.018066 2.460515 2,925 265 162 1856
2019-01-10 22:52:42 GMT 49.018345 2.465346 2,850 265 161 1984
2019-01-10 22:52:39 GMT 49.018570 2.468755 2,675 265 159 2048
2019-01-10 22:52:35 GMT 49.018902 2.474598 2,325 265 158 2176
2019-01-10 22:52:31 GMT 49.019039 2.477056 2,400 265 158 2176
2019-01-10 22:52:28 GMT 49.019257 2.480375 2,300 265 157 2368
2019-01-10 22:52:25 GMT 49.019459 2.483705 2,175 265 157 2368
2019-01-10 22:52:21 GMT 49.019737 2.488837 1,975 266 158 2496
2019-01-10 22:52:16 GMT 49.020065 2.495053 1,725 266 159 2496
2019-01-10 22:52:11 GMT 49.020264 2.499812 1,525 267 160 2624
2019-01-10 22:52:08 GMT 49.020401 2.502418 1,325 267 160 2560
2019-01-10 22:52:05 GMT 49.020531 2.505822 1,325 267 160 2560
2019-01-10 22:52:01 GMT 49.020763 2.511316 1,100 267 161 2368
2019-01-10 22:51:55 GMT 49.021042 2.518334 850 267 160 2176
2019-01-10 22:51:50 GMT 49.021225 2.522841 700 267 159 2048
2019-01-10 22:51:45 GMT 49.021461 2.528301 500 266 156 1920
2019-01-10 22:51:40 GMT 49.021820 2.535306 400 266 154 2048
We lost coverage of the aircraft here for a total of 7 minutes
2019-01-10 22:44:14 GMT 49.009243 2.581928 0 56 14
2019-01-10 22:44:11 GMT 49.009136 2.581697 0 75 13
2019-01-10 22:43:56 GMT 49.009010 2.579745 0 84 21
2019-01-10 22:43:50 GMT 49.008980 2.579093 0 84 21
2019-01-10 22:43:41 GMT 49.008911 2.577773 0 84 20
2019-01-10 22:43:36 GMT 49.008865 2.577104 0 84 19
2019-01-10 22:43:24 GMT 49.008774 2.575414 0 84 25
2019-01-10 22:43:12 GMT 49.008671 2.573475 0 84 22
2019-01-10 22:43:05 GMT 49.008614 2.572385 0 84 21
2019-01-10 22:42:56 GMT 49.008541 2.571144 0 84 20
2019-01-10 22:42:49 GMT 49.008499 2.570167 0 84 19
We lost coverage of the aircraft here for a total of 67 minutes
2019-01-10 21:35:44 GMT 49.007034 2.567332 0 354 8 0
2019-01-10 21:35:39 GMT 49.006874 2.567350 0 354 6 0
2019-01-10 21:35:24 GMT 49.006485 2.567403 0 61 6 0
2019-01-10 21:35:16 GMT 49.006413 2.567024 0 87 11 0
2019-01-10 21:35:12 GMT 49.006401 2.566717 0 87 19 0
2019-01-10 21:35:01 GMT 49.006321 2.565217 0 84 21 0
2019-01-10 21:34:49 GMT 49.006233 2.563547 0 84 19 0
2019-01-10 21:34:41 GMT 49.006180 2.562543 0 84 18 0
2019-01-10 21:34:29 GMT 49.006100 2.561188 0 84 17 0
2019-01-10 21:34:20 GMT 49.005913 2.560167 0 70 16 0
2019-01-10 21:34:10 GMT 49.005726 2.559128 0 87 17 0
2019-01-10 21:34:04 GMT 49.005695 2.558617 0 87 17 0
2019-01-10 21:33:58 GMT 49.005684 2.557966 0 84 17 0
2019-01-10 21:33:49 GMT 49.005615 2.556997 0 84 16 0
2019-01-10 21:33:46 GMT 49.005600 2.556634 0 84 16 0
2019-01-10 21:33:35 GMT 49.005524 2.555342 0 84 17 0
2019-01-10 21:30:59 GMT 48.998058 2.561314 0 264 22 0
2019-01-10 21:30:53 GMT 48.998108 2.562297 0 264 23 0
2019-01-10 21:30:49 GMT 48.998142 2.562984 0 264 22 0
2019-01-10 21:30:38 GMT 48.998234 2.564445 0 264 17 0
2019-01-10 21:30:30 GMT 48.998222 2.565290 0 286 12 0
2019-01-10 21:30:24 GMT 48.998096 2.565677 0 312 10 0
2019-01-10 21:30:13 GMT 48.997696 2.566065 0 351 13 0
2019-01-10 21:29:10 GMT 48.994591 2.568922 0 284 20 0
2019-01-10 21:28:57 GMT 48.994148 2.571347 0 286 33 0
2019-01-10 21:28:50 GMT 48.993847 2.572987 0 284 33 0
2019-01-10 21:28:33 GMT 48.993542 2.576928 0 264 42 0
2019-01-10 21:28:21 GMT 48.993782 2.581875 0 264 80 0
2019-01-10 21:28:13 GMT 48.994076 2.587208 0 264 100 0
2019-01-10 21:28:01 GMT 48.994537 2.595590 -150 266 130 -640
2019-01-10 21:27:54 GMT 48.994904 2.602492 -50 266 130 -640
2019-01-10 21:27:51 GMT 48.995022 2.604844 -25 266 130 -576
2019-01-10 21:27:45 GMT 48.995300 2.610337 50 266 132 -704
2019-01-10 21:27:39 GMT 48.995590 2.615662 125 266 133 -704
2019-01-10 21:27:35 GMT 48.995773 2.619465 250 266 133 -704
2019-01-10 21:27:32 GMT 48.995956 2.623268 225 266 133 -704
2019-01-10 21:27:29 GMT 48.996094 2.625451 250 266 134 -704
2019-01-10 21:27:25 GMT 48.996277 2.629042 300 266 134 -704
2019-01-10 21:27:21 GMT 48.996464 2.632671 325 266 134 -704
2019-01-10 21:27:18 GMT 48.996597 2.635522 375 266 134 -704
2019-01-10 21:27:15 GMT 48.996788 2.638526 425 266 135 -704
2019-01-10 21:27:11 GMT 48.997009 2.642705 475 266 135 -704
2019-01-10 21:27:08 GMT 48.997147 2.645381 500 265 135 -704
2019-01-10 21:27:05 GMT 48.997299 2.648211 550 266 136 -768
2019-01-10 21:27:00 GMT 48.997581 2.652837 600 266 136 -832
2019-01-10 21:26:57 GMT 48.997719 2.655511 650 266 136 -832
2019-01-10 21:26:54 GMT 48.997925 2.659184 700 265 136 -768
2019-01-10 21:26:50 GMT 48.998108 2.662424 750 266 136 -768
2019-01-10 21:26:47 GMT 48.998234 2.665486 800 266 137 -704
2019-01-10 21:26:44 GMT 48.998383 2.668340 825 266 137 -704
2019-01-10 21:26:40 GMT 48.998566 2.672002 875 266 137 -704
2019-01-10 21:26:34 GMT 48.998840 2.677777 950 265 137 -704
2019-01-10 21:26:29 GMT 48.999115 2.682073 1,025 265 137 -704
2019-01-10 21:26:24 GMT 48.999397 2.687603 1,050 266 137 -768
2019-01-10 21:26:19 GMT 48.999676 2.692301 1,150 266 138 -768
2019-01-10 21:26:13 GMT 48.999954 2.697722 1,225 266 139 -768
2019-01-10 21:26:08 GMT 49.000187 2.702709 1,275 266 141 -704
2019-01-10 21:26:03 GMT 49.000465 2.708491 1,350 266 146 -768
2019-01-10 21:25:59 GMT 49.000671 2.712215 1,400 266 149 -832
2019-01-10 21:25:52 GMT 49.000992 2.719046 1,500 266 154 -896
2019-01-10 21:25:48 GMT 49.001259 2.723670 1,550 265 158 -896
2019-01-10 21:25:42 GMT 49.001678 2.730970 1,650 266 167 -576
2019-01-10 21:25:37 GMT 49.001957 2.736246 1,700 266 173 -832
2019-01-10 21:25:31 GMT 49.002331 2.743619 1,825 266 177 -1088
2019-01-10 21:25:27 GMT 49.002560 2.748678 1,900 266 179 -1088
2019-01-10 21:25:24 GMT 49.002792 2.752726 1,975 266 184 -896
2019-01-10 21:25:21 GMT 49.003006 2.756582 2,000 266 185 -896
2019-01-10 21:25:17 GMT 49.003262 2.761399 2,050 266 188 -1088
2019-01-10 21:25:11 GMT 49.003738 2.770174 2,175 266 194 -1216
2019-01-10 21:25:06 GMT 49.004105 2.776865 2,225 266 195 -1280
2019-01-10 21:25:01 GMT 49.004471 2.784311 2,400 266 201 -1472
2019-01-10 21:24:57 GMT 49.004700 2.789119 2,600 266 200 -384
2019-01-10 21:24:54 GMT 49.004982 2.794503 2,600 266 200 -384
2019-01-10 21:24:50 GMT 49.005215 2.799634 2,600 266 202 64
2019-01-10 21:24:47 GMT 49.005447 2.803610 2,600 266 207 0
2019-01-10 21:24:43 GMT 49.005753 2.809824 2,600 266 212 0
2019-01-10 21:24:40 GMT 49.005959 2.814235 2,600 266 214 0
2019-01-10 21:24:35 GMT 49.006332 2.820740 2,600 266 218 -128
2019-01-10 21:24:29 GMT 49.006805 2.830388 2,625 266 225 -384
2019-01-10 21:24:23 GMT 49.007587 2.848422 2,725 267 230 -896
2019-01-10 21:24:19 GMT 49.007587 2.848422 2,750 267 231 -896
2019-01-10 21:24:15 GMT 49.007812 2.852994 2,825 267 232 -896
2019-01-10 21:24:09 GMT 49.008270 2.863488 2,925 267 235 -832
2019-01-10 21:24:05 GMT 49.008518 2.869889 2,975 266 237 -832
2019-01-10 21:23:58 GMT 49.009186 2.881658 3,075 264 241 -704
2019-01-10 21:23:54 GMT 49.009590 2.887380 3,125 261 244 -768
2019-01-10 21:23:48 GMT 49.011173 2.898584 3,200 252 250 -832
2019-01-10 21:23:44 GMT 49.012802 2.904827 3,275 243 253 -960
2019-01-10 21:23:40 GMT 49.016064 2.912606 3,350 230 259 -1024
2019-01-10 21:23:37 GMT 49.017059 2.914405 3,375 226 260 -1088
2019-01-10 21:23:32 GMT 49.027542 2.927786 3,525 218 262 0
2019-01-10 21:23:26 GMT 49.027542 2.927786 3,575 218 262 -320
2019-01-10 21:23:22 GMT 49.031433 2.932293 3,600 218 262 -64
2019-01-10 21:23:16 GMT 49.037430 2.939204 3,600 218 262 0
2019-01-10 21:23:13 GMT 49.040726 2.942998 3,600 218 262 0
2019-01-10 21:23:06 GMT 49.047344 2.950624 3,600 218 262 -64
2019-01-10 21:23:03 GMT 49.051071 2.954900 3,600 218 263 -64
2019-01-10 21:22:59 GMT 49.054932 2.959370 3,600 218 262 -64
2019-01-10 21:22:55 GMT 49.057446 2.962261 3,600 218 262 -64
2019-01-10 21:22:52 GMT 49.060986 2.966381 3,600 218 263 -64
2019-01-10 21:22:45 GMT 49.067368 2.973774 3,625 218 264 0
2019-01-10 21:22:42 GMT 49.070480 2.977365 3,625 218 264 -64
2019-01-10 21:22:34 GMT 49.077942 2.986098 3,625 218 266 -192
2019-01-10 21:22:30 GMT 49.081982 2.990739 3,625 218 269 -256
2019-01-10 21:22:26 GMT 49.087051 2.996732 3,675 218 272 -448
2019-01-10 21:22:23 GMT 49.088516 2.998422 3,675 218 274 -704
2019-01-10 21:22:20 GMT 49.092361 3.002954 3,725 218 275 -960
2019-01-10 21:22:15 GMT 49.097717 3.009338 3,825 219 275 -1344
2019-01-10 21:22:11 GMT 49.106049 3.019361 4,025 219 276 -1408
2019-01-10 21:22:02 GMT 49.110329 3.024493 4,150 219 276 -1408
2019-01-10 21:21:58 GMT 49.114380 3.029408 4,250 219 276 -1472
2019-01-10 21:21:55 GMT 49.118614 3.034467 4,350 219 276 -1408
2019-01-10 21:21:52 GMT 49.120434 3.036636 4,400 219 277 -1280
2019-01-10 21:21:49 GMT 49.123226 3.040033 4,450 219 278 -1280
2019-01-10 21:21:43 GMT 49.134018 3.053072 4,700 219 280 -1088
2019-01-10 21:21:39 GMT 49.134567 3.053706 4,700 219 280 -1152
2019-01-10 21:21:33 GMT 49.139423 3.059548 4,800 219 281 -832
2019-01-10 21:21:29 GMT 49.143814 3.064904 4,850 219 284 -960
2019-01-10 21:21:23 GMT 49.151203 3.073859 4,975 219 287 -1216
2019-01-10 21:21:19 GMT 49.153748 3.076947 5,050 219 287 -1344
2019-01-10 21:21:16 GMT 49.156631 3.080397 5,100 219 288 -1600
2019-01-10 21:21:13 GMT 49.160652 3.085279 5,225 219 288 -1792
2019-01-10 21:21:10 GMT 49.163315 3.088496 5,350 219 287 -1792
2019-01-10 21:21:07 GMT 49.167496 3.093519 5,400 219 287 -1792
2019-01-10 21:21:02 GMT 49.171829 3.098638 5,525 218 289 -1536
2019-01-10 21:20:56 GMT 49.177410 3.105300 5,675 219 290 -1664
2019-01-10 21:20:52 GMT 49.182404 3.111244 5,825 219 291 -1856
2019-01-10 21:20:49 GMT 49.185791 3.115328 5,950 219 291 -2048
2019-01-10 21:20:46 GMT 49.188721 3.118850 5,950 219 291 -2048
2019-01-10 21:20:41 GMT 49.193474 3.124526 6,200 219 291 -2112
2019-01-10 21:20:38 GMT 49.197289 3.129152 6,325 219 290 -2048
2019-01-10 21:20:35 GMT 49.199570 3.131878 6,400 218 291 -2048
2019-01-10 21:20:31 GMT 49.205017 3.138259 6,575 218 290 -1984
2019-01-10 21:20:28 GMT 49.207951 3.141728 6,675 218 291 -1856
2019-01-10 21:20:25 GMT 49.211609 3.146034 6,775 218 291 -1792
2019-01-10 21:20:20 GMT 49.215725 3.150836 6,900 218 292 -1600
2019-01-10 21:20:17 GMT 49.219868 3.155678 7,000 218 294 -1280
2019-01-10 21:20:14 GMT 49.222870 3.159203 7,075 218 295 -1152
2019-01-10 21:20:10 GMT 49.226849 3.163773 7,150 218 298 -960
2019-01-10 21:20:07 GMT 49.230343 3.167893 7,200 218 301 -704
2019-01-10 21:20:04 GMT 49.233601 3.171724 7,225 218 304 -640
2019-01-10 21:20:00 GMT 49.238113 3.177091 7,775 224 310 -1216
2019-01-10 21:19:56 GMT 49.242737 3.182514 7,450 221 310 -1536
2019-01-10 21:19:53 GMT 49.245300 3.185683 7,400 219 310 -1472
2019-01-10 21:19:49 GMT 49.250080 3.191601 7,775 224 310 -1216
2019-01-10 21:19:44 GMT 49.256458 3.200274 7,650 224 311 -1216
2019-01-10 21:19:37 GMT 49.263199 3.210543 7,775 228 314 -1600
2019-01-10 21:19:33 GMT 49.266979 3.216754 7,850 228 314 -1408
2019-01-10 21:19:29 GMT 49.270981 3.223331 7,950 228 314 -1728
2019-01-10 21:19:26 GMT 49.274368 3.228924 8,075 228 316 -1856
2019-01-10 21:19:23 GMT 49.277115 3.233502 8,075 228 316 -1856
2019-01-10 21:19:18 GMT 49.281784 3.241178 8,300 228 318 -2112
2019-01-10 21:19:12 GMT 49.291977 3.258314 8,600 228 321 -2240
2019-01-10 21:19:08 GMT 49.291977 3.258314 8,700 228 321 -2304
2019-01-10 21:19:05 GMT 49.297806 3.267869 8,825 228 321 -2176
2019-01-10 21:19:02 GMT 49.304173 3.278190 9,125 178 328 0
2019-01-10 21:18:57 GMT 49.304173 3.278190 9,125 226 325 -2112
2019-01-10 21:18:54 GMT 49.305725 3.280616 9,175 226 325 -2112
2019-01-10 21:18:51 GMT 49.313530 3.292429 9,425 178 328 0
2019-01-10 21:18:47 GMT 49.313530 3.292429 9,425 223 328 -2048
2019-01-10 21:18:44 GMT 49.317169 3.297237 9,525 216 331 -1920
2019-01-10 21:18:39 GMT 49.324890 3.305656 9,725 211 333 -1856
2019-01-10 21:18:36 GMT 49.334061 3.312519 9,875 202 334 -2048
2019-01-10 21:18:32 GMT 49.334061 3.312519 9,950 199 334 -2048
2019-01-10 21:18:28 GMT 49.337784 3.314546 10,050 196 333 -2112
2019-01-10 21:18:25 GMT 49.343555 3.316931 10,175 189 333 -2112
2019-01-10 21:18:21 GMT 49.348755 3.318294 10,300 187 331 -2176
2019-01-10 21:18:16 GMT 49.356171 3.319139 10,475 174 326 -2176
2019-01-10 21:18:13 GMT 49.361385 3.318955 10,700 176 326 -2176
2019-01-10 21:18:10 GMT 49.365528 3.318232 10,675 170 323 -2112
2019-01-10 21:18:07 GMT 49.369949 3.316956 10,775 169 322 -2112
2019-01-10 21:18:03 GMT 49.379822 3.312233 11,325 154 313 -2048
2019-01-10 21:17:55 GMT 49.388153 3.305584 11,250 146 307 -2112
2019-01-10 21:17:52 GMT 49.392883 3.300406 11,375 83 241 -1920
2019-01-10 21:17:49 GMT 49.398056 3.293011 12,025 129 291 -2496
2019-01-10 21:17:45 GMT 49.398056 3.293011 11,650 131 293 -2496
2019-01-10 21:17:39 GMT 49.403412 3.282306 11,875 121 283 -2752
2019-01-10 21:17:32 GMT 49.406590 3.273275 12,125 112 272 -2816
2019-01-10 21:17:29 GMT 49.408264 3.266461 12,425 102 260 -2624
2019-01-10 21:17:26 GMT 49.409775 3.254207 12,700 98 255 -2560
2019-01-10 21:17:22 GMT 49.409775 3.254207 12,600 93 250 -2432
2019-01-10 21:17:16 GMT 49.409500 3.242094 12,875 80 238 -1536
2019-01-10 21:17:11 GMT 49.408638 3.235618 13,000 68 234 -64
2019-01-10 21:17:08 GMT 49.407520 3.230559 13,000 62 233 64
2019-01-10 21:17:05 GMT 49.406433 3.227093 13,000 35 239 64
2019-01-10 21:17:01 GMT 49.403889 3.220801 13,000 51 234 64
2019-01-10 21:16:56 GMT 49.399605 3.213790 12,975 38 237 64
2019-01-10 21:16:50 GMT 49.395172 3.208994 12,975 27 244 128
2019-01-10 21:16:46 GMT 49.387318 3.204177 12,975 3 262 0
2019-01-10 21:16:43 GMT 49.387318 3.204177 12,975 3 262 0
2019-01-10 21:16:40 GMT 49.383316 3.203008 12,975 4 260 0
2019-01-10 21:16:35 GMT 49.378426 3.202587 12,975 357 269 0
2019-01-10 21:16:32 GMT 49.373909 3.202876 12,975 355 274 128
2019-01-10 21:16:28 GMT 49.367752 3.203782 12,950 354 276 192
2019-01-10 21:16:25 GMT 49.365761 3.204105 12,950 355 282 0
2019-01-10 21:16:22 GMT 49.361618 3.204755 12,950 355 284 -128
2019-01-10 21:16:19 GMT 49.356125 3.205695 12,975 355 289 -768
2019-01-10 21:16:14 GMT 49.350960 3.206490 13,250 355 328 -4032
2019-01-10 21:16:11 GMT 49.346924 3.207092 13,075 355 292 -1408
2019-01-10 21:16:08 GMT 49.343464 3.207646 13,125 355 293 -1664
2019-01-10 21:16:04 GMT 49.337086 3.208658 14,700 355 328 -4032
2019-01-10 21:15:59 GMT 49.328754 3.209887 13,400 355 295 -1664
2019-01-10 21:15:56 GMT 49.324749 3.210465 13,475 355 299 -1728
2019-01-10 21:15:53 GMT 49.320515 3.211116 14,700 355 328 -4032
2019-01-10 21:15:50 GMT 49.318771 3.211318 13,650 355 303 -2112
2019-01-10 21:15:46 GMT 49.308517 3.212726 13,925 355 309 -2048
2019-01-10 21:15:40 GMT 49.302750 3.213501 14,050 356 313 -1792
2019-01-10 21:15:35 GMT 49.296570 3.214346 14,175 355 318 -1792
2019-01-10 21:15:32 GMT 49.293140 3.214802 14,700 355 328 -4032
2019-01-10 21:15:29 GMT 49.286499 3.215684 14,400 355 326 -2752
2019-01-10 21:15:25 GMT 49.282574 3.216248 14,525 355 327 -3072
2019-01-10 21:15:22 GMT 49.277435 3.216952 15,050 355 328 -4032
2019-01-10 21:15:18 GMT 49.264698 3.218633 15,850 356 329 -4352
2019-01-10 21:15:15 GMT 49.264698 3.218633 15,225 356 329 -4288
2019-01-10 21:15:10 GMT 49.258366 3.219428 15,600 356 329 -4352
2019-01-10 21:15:07 GMT 49.254547 3.219934 15,775 356 329 -4416
2019-01-10 21:15:04 GMT 49.249706 3.220584 16,000 356 329 -4416
2019-01-10 21:15:01 GMT 49.246124 3.221018 16,425 355 329 -4352
2019-01-10 21:14:58 GMT 49.241592 3.221670 16,475 355 329 -4160
2019-01-10 21:14:55 GMT 49.236145 3.222375 16,675 355 329 -4288
2019-01-10 21:14:52 GMT 49.229782 3.223290 16,900 355 329 -4352
2019-01-10 21:14:47 GMT 49.225113 3.223924 17,225 355 329 -4480
2019-01-10 21:14:44 GMT 49.216507 3.225192 17,575 355 328 -4736
2019-01-10 21:14:37 GMT 49.209000 3.226248 18,100 355 328 -4288
2019-01-10 21:14:33 GMT 49.203201 3.227089 18,275 355 329 -3776
2019-01-10 21:14:30 GMT 49.198360 3.227740 18,475 355 330 -3712
2019-01-10 21:14:26 GMT 49.193115 3.228502 18,625 355 331 -3648
2019-01-10 21:14:23 GMT 49.187931 3.229185 18,900 356 332 -3520
2019-01-10 21:14:20 GMT 49.181808 3.229980 20,025 355 344 -3520
2019-01-10 21:14:16 GMT 49.177410 3.230486 19,250 356 335 -3264
2019-01-10 21:14:13 GMT 49.170502 3.231389 19,525 356 338 -3136
2019-01-10 21:14:10 GMT 49.168194 3.231643 20,250 355 346 -3904
2019-01-10 21:14:06 GMT 49.161163 3.232510 19,825 355 343 -3328
2019-01-10 21:14:03 GMT 49.156403 3.233150 20,025 355 344 -3520
2019-01-10 21:14:00 GMT 49.151016 3.233884 20,200 355 346 -3776
2019-01-10 21:13:55 GMT 49.142590 3.235185 20,450 354 347 -3840
2019-01-10 21:13:51 GMT 49.136719 3.236178 20,775 354 349 -3712
2019-01-10 21:13:46 GMT 49.125046 3.238220 21,200 354 351 -3712
2019-01-10 21:13:40 GMT 49.119781 3.239232 21,500 354 358 -2176
2019-01-10 21:13:35 GMT 49.111774 3.240605 21,575 354 362 -2304
2019-01-10 21:13:31 GMT 49.105022 3.241834 21,750 354 367 -3200
2019-01-10 21:13:28 GMT 49.093060 3.244002 22,650 352 371 -4480
2019-01-10 21:13:24 GMT 49.093060 3.244002 22,200 352 369 -4928
2019-01-10 21:13:21 GMT 49.081924 3.246530 23,100 347 379 -5184
2019-01-10 21:13:17 GMT 49.081924 3.246530 23,100 346 378 -5184
2019-01-10 21:13:14 GMT 49.076160 3.247906 22,975 351 372 -4416
2019-01-10 21:13:11 GMT 49.070389 3.249418 23,225 350 374 -4544
2019-01-10 21:13:07 GMT 49.062469 3.251812 23,475 350 377 -5120
2019-01-10 21:13:03 GMT 49.057632 3.253399 23,800 347 379 -5120
2019-01-10 21:13:00 GMT 49.050201 3.256179 24,075 346 378 -5184
2019-01-10 21:12:57 GMT 49.047531 3.257229 25,725 355 375 -4928
2019-01-10 21:12:52 GMT 49.038780 3.260554 24,600 347 379 -5184
2019-01-10 21:12:46 GMT 49.027863 3.263362 25,200 354 376 -4992
2019-01-10 21:12:42 GMT 49.022251 3.264313 25,425 355 377 -4480
2019-01-10 21:12:36 GMT 49.012337 3.265831 26,750 355 379 -4096
2019-01-10 21:12:31 GMT 49.003784 3.267165 26,700 355 387 -3648
2019-01-10 21:12:28 GMT 48.995255 3.268433 26,725 355 385 -3584
2019-01-10 21:12:25 GMT 48.993256 3.268714 27,075 355 387 -3648
2019-01-10 21:12:21 GMT 48.985291 3.269912 27,000 355 388 -3840
2019-01-10 21:12:18 GMT 48.977608 3.271107 27,425 355 392 -4352
2019-01-10 21:12:13 GMT 48.969929 3.272263 27,600 355 391 -4288
2019-01-10 21:12:09 GMT 48.962666 3.273348 27,800 355 392 -4480
2019-01-10 21:12:06 GMT 48.958832 3.273926 28,050 355 392 -4480
2019-01-10 21:12:02 GMT 48.951122 3.275155 28,375 354 392 -4672
2019-01-10 21:11:59 GMT 48.946140 3.275950 28,675 354 391 -4992
2019-01-10 21:11:56 GMT 48.940369 3.276889 28,900 354 391 -4544
2019-01-10 21:11:52 GMT 48.926170 3.279202 29,400 354 391 -3904
2019-01-10 21:11:49 GMT 48.926170 3.279202 29,725 354 398 -2688
2019-01-10 21:11:46 GMT 48.921562 3.279925 29,775 355 395 -2432
2019-01-10 21:11:42 GMT 48.913788 3.281154 29,900 354 398 -2688
2019-01-10 21:11:39 GMT 48.901310 3.283177 30,000 354 399 -3712
2019-01-10 21:11:36 GMT 48.901310 3.283177 30,200 354 396 -6208
2019-01-10 21:11:33 GMT 48.899323 3.283504 30,575 354 398 -5504
2019-01-10 21:11:30 GMT 48.892094 3.284695 35,175 352 391 -6976
2019-01-10 21:11:27 GMT 48.887299 3.285635 35,175 331 387 -5184
2019-01-10 21:11:24 GMT 48.880142 3.287166 31,325 352 390 -6784
2019-01-10 21:11:21 GMT 48.875893 3.288165 31,725 350 388 -6272
2019-01-10 21:11:15 GMT 48.863697 3.292068 32,825 346 386 -5952
2019-01-10 21:11:12 GMT 48.862068 3.292718 33,275 344 386 -6016
2019-01-10 21:11:09 GMT 48.856659 3.295194 33,025 339 385 -5888
2019-01-10 21:11:06 GMT 48.848740 3.299561 33,375 335 386 -5504
2019-01-10 21:11:00 GMT 48.840454 3.305335 34,050 332 387 -5184
2019-01-10 21:10:56 GMT 48.835114 3.309776 34,175 331 387 -5184
2019-01-10 21:10:53 GMT 48.830784 3.313679 34,700 325 389 -4544
2019-01-10 21:10:50 GMT 48.825119 3.319420 34,650 326 389 -4672
2019-01-10 21:10:47 GMT 48.821960 3.322871 35,525 322 383 -3136
2019-01-10 21:10:44 GMT 48.816818 3.328785 35,175 323 387 -3776
2019-01-10 21:10:41 GMT 48.811695 3.334857 35,400 322 381 -2880
2019-01-10 21:10:38 GMT 48.808113 3.339049 35,500 322 383 -3136
2019-01-10 21:10:34 GMT 48.802807 3.345409 35,900 322 378 -2112
2019-01-10 21:10:31 GMT 48.798981 3.349985 35,900 322 378 -320
2019-01-10 21:10:28 GMT 48.794861 3.354915 35,950 322 378 -576
2019-01-10 21:10:21 GMT 48.784973 3.366746 36,050 322 377 -384
2019-01-10 21:10:18 GMT 48.779716 3.373092 36,075 322 377 -448
2019-01-10 21:10:14 GMT 48.775341 3.378368 36,100 322 377 -512
2019-01-10 21:10:11 GMT 48.769867 3.384916 36,175 322 376 -1088
2019-01-10 21:10:07 GMT 48.765747 3.389846 36,150 322 375 -704
2019-01-10 21:10:03 GMT 48.760536 3.396149 37,900 321 378 -1536
2019-01-10 21:10:00 GMT 48.756161 3.401425 37,900 321 378 -1536
2019-01-10 21:09:57 GMT 48.752342 3.405979 36,275 322 377 -1408
2019-01-10 21:09:53 GMT 48.746567 3.412945 36,725 322 379 -1792
2019-01-10 21:09:49 GMT 48.741806 3.418579 36,450 322 379 -1920
2019-01-10 21:09:46 GMT 48.736862 3.424495 36,700 322 380 -2496
2019-01-10 21:09:43 GMT 48.732746 3.429469 36,750 322 379 -2752
2019-01-10 21:09:38 GMT 48.725739 3.437876 37,050 322 379 -2752
2019-01-10 21:09:35 GMT 48.722225 3.442118 37,150 322 379 -2688
2019-01-10 21:09:32 GMT 48.716766 3.448721 37,250 322 378 -2432
2019-01-10 21:09:29 GMT 48.708252 3.459074 37,450 322 379 -2112
2019-01-10 21:09:23 GMT 48.706238 3.461538 37,600 322 378 -1984
2019-01-10 21:09:19 GMT 48.699234 3.470060 38,000 322 391 -256
2019-01-10 21:09:15 GMT 48.694336 3.476116 37,875 321 379 -960
2019-01-10 21:09:10 GMT 48.689125 3.482521 37,950 321 380 -640
2019-01-10 21:09:07 GMT 48.682281 3.490978 37,975 321 381 0
2019-01-10 21:09:04 GMT 48.680420 3.493291 38,000 321 383 0
2019-01-10 21:09:01 GMT 48.675438 3.499435 38,000 321 384 0
2019-01-10 21:08:57 GMT 48.670166 3.505906 38,000 321 385 0
2019-01-10 21:08:54 GMT 48.664581 3.512738 38,000 321 386 -64
2019-01-10 21:08:51 GMT 48.660507 3.517738 38,000 321 388 -128
2019-01-10 21:08:48 GMT 48.653595 3.526189 38,000 321 390 -256
2019-01-10 21:08:42 GMT 48.644623 3.537175 37,950 322 396 448
2019-01-10 21:08:36 GMT 48.641037 3.541573 38,050 321 392 -192
2019-01-10 21:08:33 GMT 48.636795 3.546753 37,950 322 396 448
2019-01-10 21:08:30 GMT 48.632565 3.551909 37,975 322 408 0
2019-01-10 21:08:26 GMT 48.626541 3.559218 38,000 322 396 448
2019-01-10 21:08:23 GMT 48.621624 3.565208 37,975 322 400 448
2019-01-10 21:08:19 GMT 48.615280 3.572951 37,925 322 409 0
2019-01-10 21:08:16 GMT 48.612717 3.576050 37,925 322 409 0
2019-01-10 21:08:13 GMT 48.607361 3.582458 37,975 322 409 0
2019-01-10 21:08:05 GMT 48.596008 3.596121 37,975 322 409 0
2019-01-10 21:08:02 GMT 48.591293 3.601755 37,975 322 409 0
2019-01-10 21:07:58 GMT 48.585918 3.608214 37,950 322 408 0
2019-01-10 21:07:55 GMT 48.582150 3.612767 37,975 322 408 64
2019-01-10 21:07:52 GMT 48.576187 3.619995 37,975 322 408 0
2019-01-10 21:07:47 GMT 48.567810 3.630042 37,950 322 408 0
2019-01-10 21:07:44 GMT 48.563946 3.634740 37,950 322 408 0
2019-01-10 21:07:40 GMT 48.560455 3.638932 37,975 322 408 0
2019-01-10 21:07:36 GMT 48.554214 3.646405 37,950 322 407 0
2019-01-10 21:07:33 GMT 48.549145 3.652520 37,975 322 408 0
2019-01-10 21:07:30 GMT 48.544144 3.658518 37,975 322 408 0
2019-01-10 21:07:27 GMT 48.540115 3.663447 37,975 322 406 -64
2019-01-10 21:07:23 GMT 48.534393 3.670279 37,975 322 407 -64
2019-01-10 21:07:20 GMT 48.529732 3.675866 37,975 322 407 -64
2019-01-10 21:07:16 GMT 48.524097 3.682661 37,975 322 406 0
2019-01-10 21:07:13 GMT 48.519398 3.688371 37,975 322 406 -64
2019-01-10 21:07:10 GMT 48.515301 3.693285 37,975 321 410 0
2019-01-10 21:07:07 GMT 48.510452 3.699223 38,000 322 406 64
2019-01-10 21:07:03 GMT 48.504410 3.706477 38,000 322 406 64
2019-01-10 21:07:00 GMT 48.500031 3.711789 37,975 321 410 0
2019-01-10 21:06:57 GMT 48.496540 3.715981 37,975 322 406 64
2019-01-10 21:06:54 GMT 48.492508 3.720914 37,975 322 407 0
2019-01-10 21:06:50 GMT 48.486622 3.728051 37,975 322 407 -64
2019-01-10 21:06:47 GMT 48.482208 3.733450 37,975 321 408 -64
2019-01-10 21:06:43 GMT 48.474197 3.743169 38,000 321 407 0
2019-01-10 21:06:37 GMT 48.464218 3.755352 38,000 321 407 -64
2019-01-10 21:06:32 GMT 48.459110 3.761589 38,000 321 407 0
2019-01-10 21:06:29 GMT 48.454456 3.767226 38,000 321 407 0
2019-01-10 21:06:24 GMT 48.448242 3.774790 38,000 321 408 0
2019-01-10 21:06:21 GMT 48.443573 3.780494 38,000 321 407 0
2019-01-10 21:06:18 GMT 48.439499 3.785494 38,000 321 408 0
2019-01-10 21:06:14 GMT 48.433273 3.793030 38,025 321 408 -64
2019-01-10 21:06:11 GMT 48.429565 3.797607 38,000 321 408 -64
2019-01-10 21:06:08 GMT 48.421124 3.807919 38,000 321 408 -64
2019-01-10 21:06:01 GMT 48.414871 3.815566 38,025 321 408 -64
2019-01-10 21:05:57 GMT 48.407997 3.823893 38,025 321 408 0
2019-01-10 21:05:54 GMT 48.404552 3.828085 38,025 321 408 0
2019-01-10 21:05:50 GMT 48.398266 3.835746 38,025 321 408 0
2019-01-10 21:05:45 GMT 48.390198 3.845637 38,025 321 409 0
2019-01-10 21:05:41 GMT 48.384579 3.852515 38,025 321 409 0
2019-01-10 21:05:37 GMT 48.378296 3.860249 38,025 321 409 0
2019-01-10 21:05:34 GMT 48.375175 3.864007 38,025 321 410 0
2019-01-10 21:05:29 GMT 48.367031 3.874054 38,025 321 410 0
2019-01-10 21:05:25 GMT 48.361675 3.880559 38,025 321 410 0
2019-01-10 21:05:22 GMT 48.356369 3.887118 38,025 321 410 0
2019-01-10 21:05:19 GMT 48.352661 3.891625 38,025 321 410 0
2019-01-10 21:05:16 GMT 48.346939 3.898597 38,050 321 410 0
2019-01-10 21:05:12 GMT 48.343231 3.903175 38,050 321 410 0
2019-01-10 21:05:08 GMT 48.337238 3.910482 38,050 321 410 0
2019-01-10 21:05:03 GMT 48.328125 3.921626 38,050 321 410 64
2019-01-10 21:04:59 GMT 48.322906 3.927894 38,050 321 411 64
2019-01-10 21:04:55 GMT 48.316864 3.935289 38,050 321 411 64
2019-01-10 21:04:52 GMT 48.313385 3.939585 38,050 321 411 64
2019-01-10 21:04:49 GMT 48.309303 3.944525 38,050 321 411 64
2019-01-10 21:04:46 GMT 48.304550 3.950360 38,025 321 411 64
2019-01-10 21:04:40 GMT 48.294827 3.962234 38,025 321 412 64
2019-01-10 21:04:37 GMT 48.282578 3.977262 38,025 321 412 64
2019-01-10 21:04:32 GMT 48.282578 3.977262 38,025 321 412 64
2019-01-10 21:04:28 GMT 48.278812 3.981893 38,025 322 411 64
2019-01-10 21:04:22 GMT 48.269409 3.993458 38,025 321 412 64
2019-01-10 21:04:18 GMT 48.258453 4.006981 38,000 321 412 64
2019-01-10 21:04:15 GMT 48.258453 4.006981 38,000 321 412 64
2019-01-10 21:04:12 GMT 48.252869 4.013813 38,000 321 412 64
2019-01-10 21:04:07 GMT 48.247421 4.020433 38,000 322 412 64
2019-01-10 21:04:04 GMT 48.243340 4.025405 38,000 322 411 64
2019-01-10 21:04:00 GMT 48.235752 4.034512 38,000 322 410 64
2019-01-10 21:03:57 GMT 48.231949 4.039025 38,000 322 410 64
2019-01-10 21:03:54 GMT 48.228119 4.043547 38,000 322 410 64
2019-01-10 21:03:51 GMT 48.223022 4.049518 38,000 322 410 128
2019-01-10 21:03:47 GMT 48.217922 4.055473 37,975 322 410 128
2019-01-10 21:03:44 GMT 48.213177 4.061111 37,975 308 433 -64
2019-01-10 21:03:39 GMT 48.205029 4.071230 37,975 319 415 128
2019-01-10 21:03:36 GMT 48.197578 4.081782 37,975 314 423 64
2019-01-10 21:03:30 GMT 48.193542 4.088182 37,950 310 429 -64
2019-01-10 21:03:27 GMT 48.188873 4.096140 37,975 309 431 -64
2019-01-10 21:03:24 GMT 48.184158 4.104943 37,975 306 434 -64
2019-01-10 21:03:20 GMT 48.181000 4.111211 37,975 306 434 -64
2019-01-10 21:03:17 GMT 48.176743 4.120084 37,975 306 435 0
2019-01-10 21:03:14 GMT 48.173233 4.127390 37,975 306 435 0
2019-01-10 21:03:11 GMT 48.170021 4.134184 37,975 306 435 0
2019-01-10 21:03:08 GMT 48.165344 4.143958 37,975 306 434 64
2019-01-10 21:03:05 GMT 48.163036 4.148712 37,975 306 434 64
2019-01-10 21:03:02 GMT 48.159073 4.157089 37,975 306 434 64
2019-01-10 21:02:59 GMT 48.154678 4.166290 37,975 306 434 64
2019-01-10 21:02:55 GMT 48.151867 4.172129 37,975 306 434 -64
2019-01-10 21:02:52 GMT 48.146896 4.182564 37,975 306 433 0
2019-01-10 21:02:46 GMT 48.140694 4.195580 38,000 306 434 -64
2019-01-10 21:02:43 GMT 48.135944 4.205510 38,000 306 434 0
2019-01-10 21:02:39 GMT 48.133244 4.211215 38,000 306 433 0
2019-01-10 21:02:36 GMT 48.128033 4.222130 38,000 306 433 0
2019-01-10 21:02:32 GMT 48.124237 4.230011 38,000 306 433 64
2019-01-10 21:02:28 GMT 48.120529 4.237770 38,000 306 433 0
2019-01-10 21:02:24 GMT 48.115601 4.248117 38,000 306 433 0
2019-01-10 21:02:21 GMT 48.111366 4.256991 38,000 306 433 64
2019-01-10 21:02:18 GMT 48.107941 4.264206 38,000 306 433 64
2019-01-10 21:02:13 GMT 48.102219 4.276154 38,000 306 433 0
2019-01-10 21:02:10 GMT 48.098751 4.283471 38,000 306 433 0
2019-01-10 21:02:07 GMT 48.095764 4.289680 38,000 306 433 0
2019-01-10 21:02:03 GMT 48.090836 4.300021 38,000 306 433 0
2019-01-10 21:02:00 GMT 48.086830 4.308331 38,000 306 432 0
2019-01-10 21:01:57 GMT 48.083855 4.314528 38,000 306 432 0
2019-01-10 21:01:54 GMT 48.079605 4.323395 38,000 306 432 -64
2019-01-10 21:01:51 GMT 48.076405 4.330092 38,000 306 432 -64
2019-01-10 21:01:47 GMT 48.072166 4.338825 38,000 306 432 64
2019-01-10 21:01:44 GMT 48.067699 4.348191 38,000 306 432 64
2019-01-10 21:01:41 GMT 48.064720 4.354389 38,000 306 432 64
2019-01-10 21:01:36 GMT 48.059006 4.366310 38,000 306 433 64
2019-01-10 21:01:33 GMT 48.052048 4.380867 38,000 306 433 64
2019-01-10 21:01:26 GMT 48.047588 4.390165 38,000 306 433 -64
2019-01-10 21:01:23 GMT 48.042984 4.399887 38,025 306 433 0
2019-01-10 21:01:20 GMT 48.040653 4.404743 38,025 306 433 0
2019-01-10 21:01:15 GMT 48.031715 4.423406 38,025 306 433 64
2019-01-10 21:01:09 GMT 48.027573 4.432209 38,025 306 433 64
2019-01-10 21:01:05 GMT 48.023102 4.441575 38,000 306 433 64
2019-01-10 21:01:01 GMT 48.017937 4.452421 38,000 306 433 64
2019-01-10 21:00:58 GMT 48.012444 4.463900 38,000 306 433 64
2019-01-10 21:00:55 GMT 48.005787 4.477915 38,000 306 433 64
2019-01-10 21:00:51 GMT 48.004303 4.481049 38,000 306 433 64
2019-01-10 21:00:45 GMT 47.997391 4.495537 38,000 306 433 0
2019-01-10 21:00:42 GMT 47.997391 4.495537 38,000 306 432 0
2019-01-10 21:00:39 GMT 47.993683 4.503296 38,000 306 432 0
2019-01-10 21:00:36 GMT 47.989929 4.511055 38,000 306 431 128
2019-01-10 21:00:33 GMT 47.986000 4.519254 38,000 306 432 128
2019-01-10 21:00:30 GMT 47.983486 4.524466 38,000 306 431 64
2019-01-10 21:00:27 GMT 47.979298 4.533128 38,000 306 430 64
2019-01-10 21:00:24 GMT 47.974827 4.542354 38,000 306 429 64
2019-01-10 21:00:17 GMT 47.968323 4.555687 38,000 306 428 64
2019-01-10 21:00:10 GMT 47.959930 4.572918 38,025 306 423 -64
2019-01-10 21:00:06 GMT 47.955181 4.582637 38,000 307 426 -64
2019-01-10 21:00:01 GMT 47.949463 4.594276 38,000 307 425 -128
2019-01-10 20:59:56 GMT 47.941963 4.609610 38,025 307 423 -128
2019-01-10 20:59:51 GMT 47.937725 4.618272 38,025 307 421 64
2019-01-10 20:59:47 GMT 47.931656 4.630669 38,025 307 420 256
2019-01-10 20:59:41 GMT 47.926228 4.641724 37,975 307 420 64
2019-01-10 20:59:34 GMT 47.912819 4.669189 37,975 306 423 -64
2019-01-10 20:59:29 GMT 47.912819 4.669189 37,975 306 423 0
2019-01-10 20:59:26 GMT 47.908398 4.678204 38,000 306 423 -64
2019-01-10 20:59:21 GMT 47.903000 4.689308 38,000 306 423 -64
2019-01-10 20:59:18 GMT 47.900066 4.695317 38,025 307 424 128
2019-01-10 20:59:13 GMT 47.894432 4.706867 38,000 307 425 64
2019-01-10 20:59:10 GMT 47.889496 4.716938 38,000 307 425 64
2019-01-10 20:59:07 GMT 47.887543 4.720952 38,000 307 425 64
2019-01-10 20:59:04 GMT 47.875206 4.746164 38,000 306 427 0
2019-01-10 20:58:57 GMT 47.875206 4.746164 38,000 306 427 0
2019-01-10 20:58:53 GMT 47.866058 4.765045 38,000 306 429 -64
2019-01-10 20:58:50 GMT 47.866058 4.765045 38,000 306 429 -64
2019-01-10 20:58:47 GMT 47.864124 4.769052 38,000 306 429 -64
2019-01-10 20:58:44 GMT 47.861149 4.775179 38,025 306 429 -64
2019-01-10 20:58:41 GMT 47.855942 4.785919 38,000 306 429 -64
2019-01-10 20:58:38 GMT 47.848984 4.800270 38,025 306 429 0
2019-01-10 20:58:35 GMT 47.848984 4.800270 38,025 307 430 -128
2019-01-10 20:58:31 GMT 47.844994 4.808350 38,025 306 431 0
2019-01-10 20:58:27 GMT 47.839127 4.820392 38,000 306 432 0
2019-01-10 20:58:24 GMT 47.837311 4.824165 38,025 306 431 64
2019-01-10 20:58:20 GMT 47.831120 4.836801 38,000 306 431 0
2019-01-10 20:58:17 GMT 47.828293 4.842567 38,025 306 432 0
2019-01-10 20:58:14 GMT 47.825043 4.849297 38,000 306 432 0
2019-01-10 20:58:11 GMT 47.817032 4.865707 38,025 306 434 -64
2019-01-10 20:58:07 GMT 47.817032 4.865707 38,025 306 434 -64
2019-01-10 20:58:03 GMT 47.812775 4.874428 38,025 306 434 -64
2019-01-10 20:57:59 GMT 47.804260 4.891944 38,050 306 434 -64
2019-01-10 20:57:56 GMT 47.804260 4.891944 38,050 307 435 -128
2019-01-10 20:57:53 GMT 47.800491 4.899621 38,050 307 434 -64
2019-01-10 20:57:49 GMT 47.795181 4.910466 38,050 307 434 0
2019-01-10 20:57:44 GMT 47.789597 4.921805 38,050 307 435 64
2019-01-10 20:57:40 GMT 47.785828 4.929481 38,050 307 435 64
2019-01-10 20:57:36 GMT 47.780777 4.939728 38,050 307 435 64
2019-01-10 20:57:33 GMT 47.777435 4.946526 38,025 307 435 64
2019-01-10 20:57:30 GMT 47.773956 4.953637 38,050 307 436 128
2019-01-10 20:57:26 GMT 47.768600 4.964482 38,025 306 438 64
2019-01-10 20:57:23 GMT 47.763885 4.974197 38,025 306 438 64
2019-01-10 20:57:20 GMT 47.756172 4.989976 38,025 307 438 64
2019-01-10 20:57:13 GMT 47.752869 4.996667 38,025 307 438 128
2019-01-10 20:57:10 GMT 47.750587 5.001385 38,025 307 446 64
2019-01-10 20:57:07 GMT 47.746994 5.008667 38,025 307 439 64
2019-01-10 20:57:04 GMT 47.741928 5.018991 38,025 307 440 192
2019-01-10 20:56:58 GMT 47.735828 5.031457 38,000 307 445 64
2019-01-10 20:56:54 GMT 47.731201 5.040802 37,975 307 440 128
2019-01-10 20:56:51 GMT 47.725403 5.052584 37,975 307 446 64
2019-01-10 20:56:48 GMT 47.722748 5.057936 37,975 307 441 64
2019-01-10 20:56:44 GMT 47.719162 5.065315 37,975 306 442 64
2019-01-10 20:56:41 GMT 47.714554 5.074698 37,975 307 446 64
2019-01-10 20:56:37 GMT 47.705795 5.092506 38,000 307 442 0
2019-01-10 20:56:34 GMT 47.705795 5.092506 38,000 307 443 0
2019-01-10 20:56:30 GMT 47.702179 5.099785 37,975 307 442 0
2019-01-10 20:56:27 GMT 47.692108 5.120110 38,000 307 442 0
2019-01-10 20:56:23 GMT 47.692108 5.120110 38,000 307 443 64
2019-01-10 20:56:20 GMT 47.686707 5.131027 38,000 307 444 64
2019-01-10 20:56:14 GMT 47.681030 5.142494 38,000 307 444 64
2019-01-10 20:56:10 GMT 47.677361 5.149841 37,975 307 446 0
2019-01-10 20:56:05 GMT 47.671959 5.160757 38,000 307 444 64
2019-01-10 20:56:02 GMT 47.667801 5.169136 38,000 307 444 64
2019-01-10 20:55:59 GMT 47.663910 5.176964 37,975 307 444 64
2019-01-10 20:55:54 GMT 47.658924 5.186955 37,975 307 445 64
2019-01-10 20:55:51 GMT 47.650909 5.203125 37,975 307 445 64
2019-01-10 20:55:42 GMT 47.643127 5.218918 37,975 307 446 64
2019-01-10 20:55:38 GMT 47.638687 5.227844 37,975 307 446 -64
2019-01-10 20:55:33 GMT 47.633240 5.238899 37,975 307 447 -64
2019-01-10 20:55:30 GMT 47.628845 5.247757 37,975 306 448 64
2019-01-10 20:55:27 GMT 47.625732 5.254071 38,000 306 447 0
2019-01-10 20:55:23 GMT 47.619873 5.266022 38,000 306 447 64
2019-01-10 20:55:20 GMT 47.616421 5.273085 38,000 306 448 64
2019-01-10 20:55:17 GMT 47.613583 5.278931 38,000 306 448 64
2019-01-10 20:55:11 GMT 47.605808 5.294847 37,975 309 445 64
2019-01-10 20:55:08 GMT 47.599010 5.308580 38,000 308 445 64
2019-01-10 20:55:02 GMT 47.593185 5.319923 37,975 309 445 64
2019-01-10 20:54:58 GMT 47.588333 5.329124 38,000 309 444 64
2019-01-10 20:54:55 GMT 47.586136 5.333176 37,975 316 433 128
2019-01-10 20:54:52 GMT 47.582298 5.340130 37,975 311 442 64
2019-01-10 20:54:48 GMT 47.575836 5.351509 38,000 316 433 128
2019-01-10 20:54:45 GMT 47.572998 5.356384 37,975 312 439 -64
2019-01-10 20:54:40 GMT 47.561737 5.374992 37,975 322 425 64
2019-01-10 20:54:37 GMT 47.561737 5.374992 37,975 314 436 0
2019-01-10 20:54:34 GMT 47.557892 5.381104 37,975 314 436 0
2019-01-10 20:54:30 GMT 47.551994 5.390202 37,975 316 434 64
2019-01-10 20:54:26 GMT 47.546585 5.398338 38,000 315 434 64
2019-01-10 20:54:23 GMT 47.542053 5.405067 37,975 316 432 128
2019-01-10 20:54:20 GMT 47.535606 5.414217 37,975 317 432 128
2019-01-10 20:54:17 GMT 47.533401 5.417358 37,975 318 431 128
2019-01-10 20:54:14 GMT 47.528439 5.424147 37,975 318 430 128
2019-01-10 20:54:11 GMT 47.523735 5.430486 37,950 321 426 0
2019-01-10 20:54:08 GMT 47.514893 5.442035 37,950 320 427 0
2019-01-10 20:54:05 GMT 47.514893 5.442035 37,950 324 421 0
2019-01-10 20:54:01 GMT 47.510098 5.448092 37,975 329 412 0
2019-01-10 20:53:57 GMT 47.502640 5.457184 37,975 322 425 64
2019-01-10 20:53:54 GMT 47.499668 5.460698 37,950 322 424 64
2019-01-10 20:53:51 GMT 47.494446 5.466797 37,975 322 423 0
2019-01-10 20:53:45 GMT 47.485153 5.477371 37,950 324 422 0
2019-01-10 20:53:41 GMT 47.476501 5.486778 37,975 325 420 0
2019-01-10 20:53:38 GMT 47.474113 5.489291 37,975 325 419 -64
2019-01-10 20:53:34 GMT 47.468353 5.495224 37,975 329 414 -64
2019-01-10 20:53:30 GMT 47.461258 5.502296 37,975 330 412 0
2019-01-10 20:53:23 GMT 47.451256 5.511897 37,975 328 414 -64
2019-01-10 20:53:20 GMT 47.445343 5.517320 37,975 329 413 0
2019-01-10 20:53:17 GMT 47.439789 5.522278 38,000 330 412 0
2019-01-10 20:53:14 GMT 47.434216 5.527109 38,000 331 411 0
2019-01-10 20:53:11 GMT 47.429607 5.531053 37,975 333 409 64
2019-01-10 20:53:04 GMT 47.419418 5.539375 38,000 332 409 64
2019-01-10 20:53:01 GMT 47.414433 5.543307 37,975 332 408 64
2019-01-10 20:52:58 GMT 47.403725 5.551687 37,975 332 408 64
2019-01-10 20:52:55 GMT 47.403725 5.551687 37,975 333 409 0
2019-01-10 20:52:52 GMT 47.399117 5.555279 37,975 333 409 -64
2019-01-10 20:52:49 GMT 47.387375 5.564438 38,000 333 409 192
2019-01-10 20:52:45 GMT 47.387375 5.564438 38,000 333 410 -128
2019-01-10 20:52:42 GMT 47.380508 5.569725 38,000 333 409 -128
2019-01-10 20:52:39 GMT 47.376957 5.572533 38,025 333 409 -128
2019-01-10 20:52:36 GMT 47.367325 5.579956 38,025 333 409 0
2019-01-10 20:52:33 GMT 47.367325 5.579956 38,025 333 409 64
2019-01-10 20:52:29 GMT 47.360596 5.585243 38,025 333 410 128
2019-01-10 20:52:26 GMT 47.355541 5.589154 38,025 333 409 192
2019-01-10 20:52:23 GMT 47.350937 5.592745 38,000 333 410 192
2019-01-10 20:52:20 GMT 47.346634 5.596092 38,075 333 411 0
2019-01-10 20:52:16 GMT 47.339813 5.601448 38,000 333 412 -128
2019-01-10 20:52:13 GMT 47.333340 5.606478 38,025 333 412 -256
2019-01-10 20:52:08 GMT 47.325806 5.612366 38,050 333 412 -320
2019-01-10 20:52:05 GMT 47.320118 5.616760 38,050 333 411 0
2019-01-10 20:52:02 GMT 47.316147 5.619850 38,050 333 411 0
2019-01-10 20:51:58 GMT 47.308571 5.625704 38,050 333 412 64
2019-01-10 20:51:54 GMT 47.302521 5.630423 38,050 333 411 64
2019-01-10 20:51:51 GMT 47.297470 5.634338 38,050 333 411 64
2019-01-10 20:51:47 GMT 47.290695 5.639557 38,050 333 411 64
2019-01-10 20:51:44 GMT 47.283482 5.645142 38,050 333 412 64
2019-01-10 20:51:40 GMT 47.279522 5.648240 38,050 333 412 64
2019-01-10 20:51:37 GMT 47.261646 5.662114 38,050 332 412 64
2019-01-10 20:51:32 GMT 47.261646 5.662114 38,050 332 412 64
2019-01-10 20:51:27 GMT 47.256153 5.666480 38,050 332 412 64
2019-01-10 20:51:21 GMT 47.247215 5.673453 38,050 332 412 0
2019-01-10 20:51:18 GMT 47.242218 5.677322 38,050 332 412 0
2019-01-10 20:51:13 GMT 47.233250 5.684439 38,050 332 412 0
2019-01-10 20:51:10 GMT 47.227524 5.688927 38,050 332 412 64
2019-01-10 20:51:06 GMT 47.221054 5.693946 38,050 332 411 64
2019-01-10 20:51:02 GMT 47.215347 5.698402 38,050 332 411 64
2019-01-10 20:50:59 GMT 47.207928 5.704228 38,025 332 411 128
2019-01-10 20:50:56 GMT 47.204636 5.706779 38,025 333 411 64
2019-01-10 20:50:53 GMT 47.196121 5.713440 38,025 333 411 64
2019-01-10 20:50:50 GMT 47.194565 5.714676 38,025 333 411 64
2019-01-10 20:50:47 GMT 47.190674 5.717697 38,025 333 411 64
2019-01-10 20:50:44 GMT 47.184586 5.722504 38,025 333 411 64
2019-01-10 20:50:41 GMT 47.179230 5.726692 38,025 333 409 64
2019-01-10 20:50:38 GMT 47.173523 5.731131 38,025 333 410 64
2019-01-10 20:50:35 GMT 47.167427 5.735849 38,025 333 409 64
2019-01-10 20:50:31 GMT 47.162815 5.739441 38,025 333 409 64
2019-01-10 20:50:28 GMT 47.154297 5.745990 38,025 333 409 64
2019-01-10 20:50:25 GMT 47.151363 5.748314 38,025 333 409 64
2019-01-10 20:50:21 GMT 47.146755 5.751906 38,025 333 408 64
2019-01-10 20:50:18 GMT 47.141403 5.755991 38,000 333 407 64
2019-01-10 20:50:15 GMT 47.135696 5.760475 38,025 333 407 64
2019-01-10 20:50:12 GMT 47.130741 5.764301 38,025 333 407 64
2019-01-10 20:50:09 GMT 47.125031 5.768715 38,000 333 407 64
2019-01-10 20:50:05 GMT 47.118641 5.773668 38,000 333 405 0
2019-01-10 20:50:00 GMT 47.110565 5.779907 38,000 333 406 0
2019-01-10 20:49:57 GMT 47.105556 5.783738 38,025 333 405 0
2019-01-10 20:49:54 GMT 47.100998 5.787323 38,025 333 405 -64
2019-01-10 20:49:50 GMT 47.094246 5.792542 38,025 333 404 0
2019-01-10 20:49:46 GMT 47.087906 5.797417 38,025 333 404 0
2019-01-10 20:49:43 GMT 47.082981 5.801204 38,025 333 402 128
2019-01-10 20:49:39 GMT 47.073948 5.808176 38,025 333 403 64
2019-01-10 20:49:35 GMT 47.069275 5.811699 38,000 333 402 192
2019-01-10 20:49:32 GMT 47.063244 5.816275 38,000 333 402 128
2019-01-10 20:49:29 GMT 47.059750 5.818951 38,000 332 402 64
2019-01-10 20:49:26 GMT 47.054810 5.822685 38,000 333 401 64
2019-01-10 20:49:23 GMT 47.048172 5.827766 38,000 332 402 64
2019-01-10 20:49:19 GMT 47.042953 5.831886 38,000 332 403 0
2019-01-10 20:49:14 GMT 47.034576 5.838684 38,000 331 403 0
2019-01-10 20:49:11 GMT 47.029026 5.843388 38,000 330 405 -64
2019-01-10 20:49:05 GMT 47.020134 5.851135 38,000 329 406 0
2019-01-10 20:49:02 GMT 47.015663 5.855149 38,000 328 407 64
2019-01-10 20:48:58 GMT 47.004547 5.865669 38,000 327 408 64
2019-01-10 20:48:55 GMT 47.004547 5.865669 38,000 326 408 64
2019-01-10 20:48:52 GMT 47.000885 5.869171 38,000 326 408 64
2019-01-10 20:48:48 GMT 46.993553 5.876559 38,000 325 409 64
2019-01-10 20:48:45 GMT 46.987968 5.882334 38,000 325 410 64
2019-01-10 20:48:41 GMT 46.982666 5.887917 38,000 324 411 64
2019-01-10 20:48:37 GMT 46.976807 5.894234 38,000 323 412 64
2019-01-10 20:48:34 GMT 46.972279 5.899306 38,000 323 413 64
2019-01-10 20:48:31 GMT 46.967514 5.904739 37,975 319 417 64
2019-01-10 20:48:28 GMT 46.957581 5.916412 37,975 321 415 128
2019-01-10 20:48:25 GMT 46.957581 5.916412 37,975 114 295 8256
2019-01-10 20:48:22 GMT 46.953518 5.921349 37,975 320 416 64
2019-01-10 20:48:18 GMT 46.943939 5.933510 37,975 318 411 64
2019-01-10 20:48:12 GMT 46.938713 5.940434 37,975 318 419 64
2019-01-10 20:48:09 GMT 46.934784 5.945732 37,975 317 420 64
2019-01-10 20:48:04 GMT 46.925262 5.959027 37,975 316 421 64
2019-01-10 20:48:01 GMT 46.923401 5.961703 37,950 313 426 64
2019-01-10 20:47:58 GMT 46.920456 5.965988 37,975 315 423 128
2019-01-10 20:47:55 GMT 46.911163 5.980064 37,975 314 425 128
2019-01-10 20:47:52 GMT 46.911163 5.980064 37,950 313 425 64
2019-01-10 20:47:49 GMT 46.908325 5.984528 37,950 312 427 64
2019-01-10 20:47:46 GMT 46.903244 5.992699 37,950 312 427 64
2019-01-10 20:47:43 GMT 46.899582 5.998741 37,950 311 428 0
2019-01-10 20:47:39 GMT 46.895416 6.005745 37,950 310 430 0
2019-01-10 20:47:36 GMT 46.891605 6.012409 37,950 310 430 0
2019-01-10 20:47:33 GMT 46.886436 6.021423 37,950 310 430 0
2019-01-10 20:47:30 GMT 46.883781 6.026142 37,950 310 429 0
2019-01-10 20:47:27 GMT 46.879734 6.033325 37,950 310 429 0
2019-01-10 20:47:23 GMT 46.874332 6.042833 37,975 310 429 0
2019-01-10 20:47:20 GMT 46.870605 6.049484 37,975 310 429 -64
2019-01-10 20:47:17 GMT 46.866837 6.056145 37,975 310 428 0
2019-01-10 20:47:14 GMT 46.859344 6.069410 37,975 310 428 0
2019-01-10 20:47:11 GMT 46.859344 6.069410 37,975 310 428 0
2019-01-10 20:47:08 GMT 46.854221 6.078529 37,975 310 428 0
2019-01-10 20:47:04 GMT 46.850731 6.084641 37,975 310 427 0
2019-01-10 20:47:01 GMT 46.845703 6.093704 38,000 310 427 -64
2019-01-10 20:46:58 GMT 46.843513 6.097481 38,000 310 427 -64
2019-01-10 20:46:54 GMT 46.837139 6.108948 38,000 310 427 -64
2019-01-10 20:46:49 GMT 46.832062 6.117943 38,000 310 427 0
2019-01-10 20:46:46 GMT 46.828354 6.124677 38,000 310 427 0
2019-01-10 20:46:43 GMT 46.823357 6.133598 38,000 310 427 0
2019-01-10 20:46:40 GMT 46.820099 6.139366 38,000 310 427 0
2019-01-10 20:46:37 GMT 46.817165 6.144653 38,000 310 427 0
2019-01-10 20:46:34 GMT 46.813721 6.150833 38,000 310 427 0
2019-01-10 20:46:31 GMT 46.809448 6.158507 38,000 310 427 0
2019-01-10 20:46:28 GMT 46.804962 6.166479 38,000 310 427 0
2019-01-10 20:46:24 GMT 46.800934 6.173580 38,000 310 427 0
2019-01-10 20:46:21 GMT 46.797195 6.180290 38,025 310 427 0
2019-01-10 20:46:18 GMT 46.793427 6.186910 38,000 310 427 0
2019-01-10 20:46:15 GMT 46.789143 6.194435 38,025 310 427 64
2019-01-10 20:46:11 GMT 46.783768 6.203926 38,025 310 427 0
2019-01-10 20:46:08 GMT 46.776306 6.217190 38,025 310 427 64
2019-01-10 20:46:04 GMT 46.776306 6.217190 38,025 310 427 64
2019-01-10 20:46:00 GMT 46.770950 6.226702 38,025 310 427 64
2019-01-10 20:45:57 GMT 46.767216 6.233368 38,025 310 427 64
2019-01-10 20:45:54 GMT 46.763260 6.240368 38,025 310 427 64
2019-01-10 20:45:51 GMT 46.758137 6.249435 38,000 310 427 64
2019-01-10 20:45:48 GMT 46.754276 6.256371 38,000 310 427 64
2019-01-10 20:45:44 GMT 46.747200 6.268936 38,025 310 427 64
2019-01-10 20:45:38 GMT 46.742981 6.276543 38,000 310 427 64
2019-01-10 20:45:35 GMT 46.739319 6.283175 38,000 310 427 64
2019-01-10 20:45:31 GMT 46.734211 6.292282 38,025 310 427 64
2019-01-10 20:45:27 GMT 46.729980 6.299855 38,000 310 427 64
2019-01-10 20:45:24 GMT 46.726250 6.306496 38,000 310 427 128
2019-01-10 20:45:21 GMT 46.721783 6.314529 38,000 310 427 64
2019-01-10 20:45:18 GMT 46.716980 6.323101 38,000 310 427 128
2019-01-10 20:45:15 GMT 46.712997 6.330269 38,000 310 427 128
2019-01-10 20:45:11 GMT 46.709518 6.336432 38,000 310 427 128
2019-01-10 20:45:08 GMT 46.706085 6.342595 38,000 310 427 64
2019-01-10 20:45:05 GMT 46.702320 6.349274 38,000 310 427 64
2019-01-10 20:45:01 GMT 46.694408 6.363281 37,975 310 427 0
2019-01-10 20:44:58 GMT 46.692993 6.365706 38,000 310 427 0
2019-01-10 20:44:55 GMT 46.689240 6.372414 38,000 310 427 0
2019-01-10 20:44:52 GMT 46.686035 6.378032 38,000 310 427 0
2019-01-10 20:44:48 GMT 46.677231 6.393700 38,000 310 427 0
2019-01-10 20:44:45 GMT 46.677231 6.393700 38,000 310 427 64
2019-01-10 20:44:42 GMT 46.672440 6.402216 38,000 310 427 64
2019-01-10 20:44:38 GMT 46.667862 6.410255 38,000 310 426 64
2019-01-10 20:44:33 GMT 46.661774 6.421097 38,000 310 427 128
2019-01-10 20:44:30 GMT 46.658283 6.427277 38,000 310 427 128
2019-01-10 20:44:27 GMT 46.653488 6.435860 38,000 310 428 -64
2019-01-10 20:44:24 GMT 46.650604 6.441003 38,000 310 427 64
2019-01-10 20:44:21 GMT 46.647343 6.446709 37,975 310 429 0
2019-01-10 20:44:17 GMT 46.642593 6.455205 37,975 310 429 0
2019-01-10 20:44:14 GMT 46.638268 6.462845 38,000 310 428 -64
2019-01-10 20:44:11 GMT 46.634823 6.468956 38,000 310 429 -64
2019-01-10 20:44:07 GMT 46.629410 6.478450 38,025 310 428 -64
2019-01-10 20:44:04 GMT 46.623093 6.489637 38,025 310 427 64
2019-01-10 20:44:01 GMT 46.621948 6.491714 38,025 310 427 64
2019-01-10 20:43:57 GMT 46.616867 6.500691 38,025 310 427 128
2019-01-10 20:43:53 GMT 46.611282 6.510605 38,025 310 427 128
2019-01-10 20:43:50 GMT 46.606705 6.518669 38,000 310 427 128
2019-01-10 20:43:47 GMT 46.603043 6.525142 38,000 310 429 128
2019-01-10 20:43:43 GMT 46.598698 6.532883 38,000 310 429 0
2019-01-10 20:43:40 GMT 46.593979 6.541287 38,000 310 429 0
2019-01-10 20:43:36 GMT 46.590866 6.546713 38,000 310 429 0
2019-01-10 20:43:33 GMT 46.586838 6.553814 38,000 310 429 64
2019-01-10 20:43:30 GMT 46.583054 6.560486 38,000 310 429 64
2019-01-10 20:43:27 GMT 46.579330 6.567078 38,000 310 429 64
2019-01-10 20:43:23 GMT 46.573933 6.576553 38,000 310 429 128
2019-01-10 20:43:20 GMT 46.570221 6.583155 38,000 310 429 128
2019-01-10 20:43:17 GMT 46.562897 6.595985 38,000 310 428 128
2019-01-10 20:43:14 GMT 46.562897 6.595985 37,975 310 428 128
2019-01-10 20:43:08 GMT 46.551315 6.616248 37,975 310 428 128
2019-01-10 20:43:05 GMT 46.551315 6.616248 38,000 310 426 0
2019-01-10 20:43:01 GMT 46.545914 6.625627 37,975 310 427 -64
2019-01-10 20:42:58 GMT 46.537525 6.640137 38,000 310 426 0
2019-01-10 20:42:55 GMT 46.537525 6.640137 38,000 310 425 640
2019-01-10 20:42:52 GMT 46.533569 6.647003 38,000 310 425 192
2019-01-10 20:42:48 GMT 46.528610 6.655504 37,975 310 424 512
2019-01-10 20:42:45 GMT 46.526775 6.658745 37,925 310 424 1024
2019-01-10 20:42:42 GMT 46.521698 6.667562 37,900 310 424 1024
2019-01-10 20:42:39 GMT 46.517120 6.675534 37,900 310 424 1024
2019-01-10 20:42:35 GMT 46.512856 6.682915 37,800 310 424 1024
2019-01-10 20:42:31 GMT 46.508011 6.691344 37,725 310 425 896
2019-01-10 20:42:28 GMT 46.504242 6.697884 37,675 310 425 896
2019-01-10 20:42:25 GMT 46.501308 6.703033 37,650 310 425 896
2019-01-10 20:42:22 GMT 46.497261 6.710037 37,550 310 425 832
2019-01-10 20:42:19 GMT 46.494328 6.715187 37,550 310 426 896
2019-01-10 20:42:16 GMT 46.489811 6.723083 37,525 310 425 832
2019-01-10 20:42:13 GMT 46.486038 6.729662 37,475 310 425 832
2019-01-10 20:42:10 GMT 46.481804 6.737160 37,425 310 425 768
2019-01-10 20:42:07 GMT 46.478348 6.743194 37,400 310 425 768
2019-01-10 20:42:04 GMT 46.472443 6.753510 37,325 310 424 640
2019-01-10 20:42:01 GMT 46.470585 6.756798 37,300 310 424 768
2019-01-10 20:41:58 GMT 46.467651 6.761948 37,300 310 424 768
2019-01-10 20:41:55 GMT 46.462143 6.771598 37,275 310 424 896
2019-01-10 20:41:52 GMT 46.459644 6.775955 37,225 310 424 896
2019-01-10 20:41:49 GMT 46.456760 6.781036 37,175 310 423 896
2019-01-10 20:41:46 GMT 46.451935 6.789417 37,075 310 422 576
2019-01-10 20:41:43 GMT 46.448456 6.795513 37,075 310 423 768
2019-01-10 20:41:40 GMT 46.442139 6.806499 37,025 310 423 704
2019-01-10 20:41:36 GMT 46.435959 6.817218 36,975 310 422 576
2019-01-10 20:41:33 GMT 46.435959 6.817218 36,975 310 422 512
2019-01-10 20:41:29 GMT 46.431667 6.824638 36,950 310 420 320
2019-01-10 20:41:26 GMT 46.421940 6.841461 36,900 310 418 448
2019-01-10 20:41:23 GMT 46.421940 6.841461 36,900 310 418 448
2019-01-10 20:41:20 GMT 46.419704 6.845306 36,875 310 417 512
2019-01-10 20:41:17 GMT 46.416817 6.850250 36,850 311 416 512
2019-01-10 20:41:14 GMT 46.412064 6.858416 36,850 310 415 576
2019-01-10 20:41:11 GMT 46.408344 6.864807 36,825 310 415 576
2019-01-10 20:41:08 GMT 46.401260 6.877106 36,750 310 415 1088
2019-01-10 20:41:05 GMT 46.393772 6.890144 36,675 310 414 1536
2019-01-10 20:41:01 GMT 46.393772 6.890144 36,625 310 415 1536
2019-01-10 20:40:58 GMT 46.392380 6.892514 36,575 310 416 1664
2019-01-10 20:40:55 GMT 46.383453 6.908123 36,400 310 418 1856
2019-01-10 20:40:51 GMT 46.383453 6.908123 36,350 310 418 1856
2019-01-10 20:40:48 GMT 46.378925 6.915962 36,275 310 418 1856
2019-01-10 20:40:45 GMT 46.376316 6.920494 36,050 310 421 1536
2019-01-10 20:40:42 GMT 46.372871 6.926468 36,050 310 421 1536
2019-01-10 20:40:39 GMT 46.368668 6.933847 35,975 310 421 1600
2019-01-10 20:40:35 GMT 46.364685 6.940814 35,850 310 423 1600
2019-01-10 20:40:32 GMT 46.360703 6.947714 35,875 310 424 1600
2019-01-10 20:40:29 GMT 46.356392 6.955238 35,725 310 424 1536
2019-01-10 20:40:26 GMT 46.352390 6.962242 35,650 310 426 1472
2019-01-10 20:40:22 GMT 46.342987 6.978584 35,550 310 426 1408
2019-01-10 20:40:19 GMT 46.342987 6.978584 35,450 310 426 1408
2019-01-10 20:40:15 GMT 46.339260 6.985039 35,400 310 426 1536
2019-01-10 20:40:12 GMT 46.334702 6.993066 35,300 310 426 1728
2019-01-10 20:40:09 GMT 46.331497 6.998693 35,225 310 427 1792
2019-01-10 20:40:06 GMT 46.326965 7.006598 35,075 310 429 2112
2019-01-10 20:40:03 GMT 46.322968 7.013603 35,000 310 429 2240
2019-01-10 20:40:00 GMT 46.316730 7.024521 34,850 310 431 2240
2019-01-10 20:39:54 GMT 46.313461 7.030178 34,725 310 431 2176
2019-01-10 20:39:51 GMT 46.308792 7.038284 34,500 310 433 1856
2019-01-10 20:39:48 GMT 46.305862 7.043442 34,175 310 433 1408
2019-01-10 20:39:44 GMT 46.298950 7.055366 34,325 310 433 1408
2019-01-10 20:39:41 GMT 46.295177 7.061943 34,225 310 434 1280
2019-01-10 20:39:37 GMT 46.290710 7.069568 34,200 310 434 1280
2019-01-10 20:39:34 GMT 46.286938 7.076157 34,125 310 433 1344
2019-01-10 20:39:30 GMT 46.281693 7.085177 34,025 310 433 1472
2019-01-10 20:39:27 GMT 46.278397 7.090871 33,975 310 433 1536
2019-01-10 20:39:23 GMT 46.272949 7.100316 33,850 310 435 1600
2019-01-10 20:39:20 GMT 46.269333 7.106480 33,800 310 435 1600
2019-01-10 20:39:17 GMT 46.261047 7.120748 33,625 310 435 1536
2019-01-10 20:39:14 GMT 46.261047 7.120748 33,575 310 435 1472
2019-01-10 20:39:11 GMT 46.257469 7.126900 33,550 310 435 1408
2019-01-10 20:39:08 GMT 46.252304 7.135754 33,450 310 435 1216
2019-01-10 20:39:05 GMT 46.249786 7.140152 33,250 310 435 1152
2019-01-10 20:39:01 GMT 46.244759 7.148735 33,325 310 435 1152
2019-01-10 20:38:58 GMT 46.240356 7.156320 33,250 310 435 1216
2019-01-10 20:38:55 GMT 46.236008 7.163841 33,175 310 434 1280
2019-01-10 20:38:52 GMT 46.233261 7.168579 33,100 310 433 1472
2019-01-10 20:38:49 GMT 46.228317 7.177087 33,050 310 433 1472
2019-01-10 20:38:46 GMT 46.224747 7.183317 32,725 310 433 1536
2019-01-10 20:38:41 GMT 46.217342 7.196045 32,825 310 433 1536
2019-01-10 20:38:38 GMT 46.215179 7.199796 32,800 310 433 1536
2019-01-10 20:38:35 GMT 46.210602 7.207701 32,725 310 433 1536
2019-01-10 20:38:32 GMT 46.207191 7.213554 32,600 310 433 1664
2019-01-10 20:38:29 GMT 46.202538 7.221588 32,525 310 433 1856
2019-01-10 20:38:25 GMT 46.192669 7.238548 32,250 310 433 1856
2019-01-10 20:38:21 GMT 46.192669 7.238548 32,275 310 433 1728
2019-01-10 20:38:18 GMT 46.188309 7.246086 32,200 310 433 1600
2019-01-10 20:38:14 GMT 46.184429 7.252762 32,150 310 433 1472
2019-01-10 20:38:11 GMT 46.179493 7.261276 32,000 310 433 1536
2019-01-10 20:38:08 GMT 46.176235 7.266975 31,950 310 433 1664
2019-01-10 20:38:04 GMT 46.169998 7.277705 31,900 310 433 1792
2019-01-10 20:38:01 GMT 46.167435 7.282127 31,700 310 433 1984
2019-01-10 20:37:58 GMT 46.161991 7.291489 31,600 310 435 2048
2019-01-10 20:37:54 GMT 46.158451 7.297668 31,500 310 435 2048
2019-01-10 20:37:50 GMT 46.152924 7.307114 31,350 310 435 1984
2019-01-10 20:37:47 GMT 46.144348 7.321770 31,200 311 436 1728
2019-01-10 20:37:44 GMT 46.144348 7.321770 31,125 311 436 1728
2019-01-10 20:37:40 GMT 46.140472 7.328417 30,750 311 435 1728
2019-01-10 20:37:37 GMT 46.136574 7.335091 31,000 311 435 1664
2019-01-10 20:37:34 GMT 46.131870 7.343056 30,825 311 435 1536
2019-01-10 20:37:31 GMT 46.127426 7.350657 30,775 311 434 1536
2019-01-10 20:37:28 GMT 46.125259 7.354385 30,650 311 434 1472
2019-01-10 20:37:25 GMT 46.120510 7.362419 30,675 311 434 1472
2019-01-10 20:37:22 GMT 46.117722 7.367137 30,575 311 434 1344
2019-01-10 20:37:19 GMT 46.112785 7.375534 30,500 311 433 1344
2019-01-10 20:37:16 GMT 46.107788 7.383951 30,400 311 433 1280
2019-01-10 20:37:13 GMT 46.105225 7.388239 30,325 311 432 1280
2019-01-10 20:37:10 GMT 46.101147 7.395172 30,325 311 432 1280
2019-01-10 20:37:07 GMT 46.093140 7.408671 30,175 311 431 1408
2019-01-10 20:37:01 GMT 46.089569 7.414700 30,050 311 430 1408
2019-01-10 20:36:58 GMT 46.085953 7.420796 30,000 311 429 1344
2019-01-10 20:36:55 GMT 46.081833 7.427763 29,950 311 429 1280
2019-01-10 20:36:52 GMT 46.078056 7.434174 29,900 311 428 1280
2019-01-10 20:36:49 GMT 46.073959 7.441109 29,850 311 427 1216
2019-01-10 20:36:45 GMT 46.068233 7.450859 29,725 311 426 1216
2019-01-10 20:36:42 GMT 46.065254 7.455940 29,400 311 425 1216
2019-01-10 20:36:39 GMT 46.061764 7.461914 29,625 311 425 1280
2019-01-10 20:36:36 GMT 46.057938 7.468425 29,500 310 423 1472
2019-01-10 20:36:33 GMT 46.054733 7.473930 29,150 310 422 1408
2019-01-10 20:36:30 GMT 46.049927 7.482225 29,175 311 423 1472
2019-01-10 20:36:24 GMT 46.041321 7.496963 29,150 310 421 1472
2019-01-10 20:36:18 GMT 46.034958 7.507949 29,125 310 420 1536
2019-01-10 20:36:14 GMT 46.030155 7.516159 28,975 311 419 1664
2019-01-10 20:36:11 GMT 46.026489 7.522486 28,650 311 407 2624
2019-01-10 20:36:08 GMT 46.016006 7.540172 28,725 311 417 1536
2019-01-10 20:36:03 GMT 46.016006 7.540172 28,575 311 416 1408
2019-01-10 20:35:58 GMT 46.010742 7.549118 28,425 311 416 1344
2019-01-10 20:35:55 GMT 46.006741 7.555847 28,500 311 416 1344
2019-01-10 20:35:52 GMT 46.003006 7.562144 28,425 311 415 1280
2019-01-10 20:35:49 GMT 45.997707 7.571022 28,325 311 414 1216
2019-01-10 20:35:45 GMT 45.993988 7.577284 28,250 311 412 1088
2019-01-10 20:35:42 GMT 45.989746 7.584412 28,200 311 412 960
2019-01-10 20:35:38 GMT 45.985016 7.592357 28,150 311 409 1024
2019-01-10 20:35:35 GMT 45.980530 7.599859 28,075 311 408 1216
2019-01-10 20:35:31 GMT 45.975403 7.608501 27,975 311 407 1664
2019-01-10 20:35:28 GMT 45.972702 7.612989 27,900 311 406 1920
2019-01-10 20:35:24 GMT 45.967484 7.621765 27,575 311 407 2688
2019-01-10 20:35:19 GMT 45.962280 7.630417 27,550 311 407 2688
2019-01-10 20:35:16 GMT 45.958324 7.637009 27,250 311 409 2624
2019-01-10 20:35:12 GMT 45.953297 7.645386 27,250 311 409 2496
2019-01-10 20:35:09 GMT 45.949341 7.651909 27,100 311 410 2176
2019-01-10 20:35:06 GMT 45.945648 7.658007 26,825 312 408 1728
2019-01-10 20:35:01 GMT 45.940338 7.666782 26,875 312 409 1792
2019-01-10 20:34:58 GMT 45.935303 7.675022 26,725 312 409 1664
2019-01-10 20:34:55 GMT 45.932907 7.678963 26,525 311 407 1856
2019-01-10 20:34:51 GMT 45.922852 7.695521 26,525 311 406 1664
2019-01-10 20:34:48 GMT 45.922852 7.695521 26,425 311 407 1856
2019-01-10 20:34:44 GMT 45.919464 7.701148 26,325 311 406 1792
2019-01-10 20:34:40 GMT 45.913971 7.710259 26,200 311 406 1536
2019-01-10 20:34:37 GMT 45.910080 7.716824 26,100 311 405 1472
2019-01-10 20:34:33 GMT 45.905907 7.723869 26,025 310 402 704
2019-01-10 20:34:30 GMT 45.902344 7.729954 25,950 309 401 640
2019-01-10 20:34:27 GMT 45.898544 7.736586 25,925 308 383 1792
2019-01-10 20:34:23 GMT 45.894012 7.744557 25,900 309 400 640
2019-01-10 20:34:17 GMT 45.886734 7.757888 25,825 308 397 1024
2019-01-10 20:34:12 GMT 45.880417 7.769813 25,675 308 394 1728
2019-01-10 20:34:07 GMT 45.875702 7.778722 25,550 308 393 1792
2019-01-10 20:34:03 GMT 45.870300 7.788905 25,425 308 382 1856
2019-01-10 20:34:00 GMT 45.868652 7.791986 25,350 308 391 1344
2019-01-10 20:33:57 GMT 45.863754 7.801231 25,250 308 390 1216
2019-01-10 20:33:53 GMT 45.860054 7.808258 25,175 308 388 1344
2019-01-10 20:33:50 GMT 45.857491 7.813065 25,125 308 387 1472
2019-01-10 20:33:47 GMT 45.853821 7.820055 25,050 308 387 1536
2019-01-10 20:33:44 GMT 45.850136 7.827072 24,950 307 384 1792
2019-01-10 20:33:38 GMT 45.844643 7.837440 24,800 308 383 1792
2019-01-10 20:33:35 GMT 45.840546 7.845243 24,675 308 382 1792
2019-01-10 20:33:30 GMT 45.835373 7.855091 24,525 307 380 1920
2019-01-10 20:33:25 GMT 45.830841 7.863732 24,400 307 380 2048
2019-01-10 20:33:20 GMT 45.824951 7.874863 24,175 307 379 2112
2019-01-10 20:33:15 GMT 45.820221 7.883829 24,050 308 378 2240
2019-01-10 20:33:12 GMT 45.816422 7.891064 23,850 308 378 2240
2019-01-10 20:33:04 GMT 45.808102 7.906860 23,600 307 379 2368
2019-01-10 20:33:01 GMT 45.804749 7.913315 23,450 307 379 2304
2019-01-10 20:32:58 GMT 45.801815 7.918808 23,350 307 379 2304
2019-01-10 20:32:54 GMT 45.797791 7.926502 23,200 307 379 2304
2019-01-10 20:32:51 GMT 45.793530 7.934601 23,025 307 379 2368
2019-01-10 20:32:48 GMT 45.791061 7.939297 22,950 308 378 2304
2019-01-10 20:32:42 GMT 45.784058 7.952561 22,675 307 377 2112
2019-01-10 20:32:37 GMT 45.780075 7.960144 22,550 307 377 1984
2019-01-10 20:32:34 GMT 45.775791 7.968246 22,425 307 376 1920
2019-01-10 20:32:31 GMT 45.773792 7.972092 22,350 307 375 1920
2019-01-10 20:32:26 GMT 45.768448 7.982237 22,175 307 374 2048
2019-01-10 20:32:23 GMT 45.765366 7.988091 22,075 307 374 2112
2019-01-10 20:32:20 GMT 45.762726 7.993157 21,975 307 372 2048
2019-01-10 20:32:16 GMT 45.757645 8.002803 21,825 308 372 1856
2019-01-10 20:32:13 GMT 45.753021 8.011512 21,700 307 370 1728
2019-01-10 20:32:09 GMT 45.749676 8.017822 21,575 308 369 1536
2019-01-10 20:32:05 GMT 45.746613 8.023704 21,500 308 367 1408
2019-01-10 20:32:02 GMT 45.740936 8.034422 21,375 307 364 1472
2019-01-10 20:31:55 GMT 45.736645 8.042542 21,275 307 360 1536
2019-01-10 20:31:50 GMT 45.731277 8.052711 21,125 307 357 1472
2019-01-10 20:31:43 GMT 45.724548 8.065506 20,950 307 353 1536
2019-01-10 20:31:39 GMT 45.720348 8.073509 20,850 308 350 1536
2019-01-10 20:31:33 GMT 45.714157 8.085320 20,675 307 346 1536
2019-01-10 20:31:30 GMT 45.705597 8.101613 20,425 307 341 1472
2019-01-10 20:31:23 GMT 45.705597 8.101613 20,425 307 340 1472
2019-01-10 20:31:20 GMT 45.702801 8.106880 20,325 307 337 1408
2019-01-10 20:31:16 GMT 45.698364 8.115346 20,250 307 335 1408
2019-01-10 20:31:11 GMT 45.693649 8.124390 20,150 307 331 1408
2019-01-10 20:31:08 GMT 45.690536 8.130285 20,075 307 331 1472
2019-01-10 20:31:05 GMT 45.688602 8.134071 20,000 307 327 1600
2019-01-10 20:30:59 GMT 45.682270 8.146225 19,800 307 324 1920
2019-01-10 20:30:55 GMT 45.679184 8.152123 19,675 307 323 2048
2019-01-10 20:30:51 GMT 45.675980 8.158286 19,525 307 321 2368
2019-01-10 20:30:48 GMT 45.673332 8.163391 19,425 307 320 2624
2019-01-10 20:30:43 GMT 45.668446 8.172798 19,175 307 320 3008
2019-01-10 20:30:38 GMT 45.664486 8.180420 18,950 307 320 2816
2019-01-10 20:30:35 GMT 45.661469 8.186154 18,775 307 320 2624
2019-01-10 20:30:27 GMT 45.655224 8.198135 18,500 307 320 2048
2019-01-10 20:30:17 GMT 45.645584 8.216367 18,100 308 316 2176
2019-01-10 20:30:14 GMT 45.642609 8.222031 17,975 308 314 1856
2019-01-10 20:30:07 GMT 45.636974 8.232536 17,800 308 308 1344
2019-01-10 20:30:04 GMT 45.634739 8.236656 17,750 308 305 1536
2019-01-10 20:29:57 GMT 45.627850 8.249153 17,550 309 301 2240
2019-01-10 20:29:54 GMT 45.625626 8.253077 17,400 309 299 2816
2019-01-10 20:29:47 GMT 45.619675 8.263527 16,975 310 299 3392
2019-01-10 20:29:43 GMT 45.615932 8.270027 16,800 310 301 3136
2019-01-10 20:29:37 GMT 45.610672 8.279228 16,425 305 303 2496
2019-01-10 20:29:34 GMT 45.607368 8.285820 16,325 300 305 2368
2019-01-10 20:29:26 GMT 45.602989 8.298523 15,900 289 307 2496
2019-01-10 20:29:21 GMT 45.601177 8.307243 15,825 282 308 2752
2019-01-10 20:29:14 GMT 45.599854 8.320536 15,500 270 311 2624
2019-01-10 20:29:03 GMT 45.602154 8.342949 15,050 250 309 2048
2019-01-10 20:28:58 GMT 45.605347 8.353696 14,850 246 307 2112
2019-01-10 20:28:54 GMT 45.607971 8.360527 14,675 240 304 2368
2019-01-10 20:28:47 GMT 45.612534 8.371582 14,425 240 303 2432
2019-01-10 20:28:44 GMT 45.615738 8.379219 14,200 239 300 2624
2019-01-10 20:28:40 GMT 45.621277 8.392148 13,075 230 297 3200
2019-01-10 20:28:33 GMT 45.623016 8.396033 13,725 235 297 3200
2019-01-10 20:28:22 GMT 45.632179 8.413467 13,100 230 297 3200
2019-01-10 20:28:17 GMT 45.636200 8.420150 12,850 230 297 3200
2019-01-10 20:28:11 GMT 45.642235 8.430153 12,525 230 296 3200
2019-01-10 20:28:07 GMT 45.646145 8.436607 12,250 229 294 3008
2019-01-10 20:28:03 GMT 45.649918 8.442719 11,975 229 293 3008
2019-01-10 20:28:00 GMT 45.651352 8.445003 11,975 229 293 3008
2019-01-10 20:27:54 GMT 45.657272 8.454529 11,500 229 290 2432
2019-01-10 20:27:49 GMT 45.661652 8.461549 11,450 229 288 2432
2019-01-10 20:27:42 GMT 45.667740 8.471062 10,975 228 284 2688
2019-01-10 20:27:39 GMT 45.670212 8.474947 10,950 228 280 2624
2019-01-10 20:27:32 GMT 45.676575 8.484795 10,425 228 276 3072
2019-01-10 20:27:29 GMT 45.679523 8.489410 10,450 228 278 3008
2019-01-10 20:27:22 GMT 45.688927 8.504036 9,850 228 276 3968
2019-01-10 20:27:18 GMT 45.688927 8.504036 9,800 228 276 3904
2019-01-10 20:27:11 GMT 45.695160 8.513935 9,275 229 278 4416
2019-01-10 20:27:08 GMT 45.705643 8.531353 8,775 231 283 3584
2019-01-10 20:26:59 GMT 45.705643 8.531353 8,400 231 283 3584
2019-01-10 20:26:56 GMT 45.706848 8.533493 8,300 231 283 3584
2019-01-10 20:26:48 GMT 45.714020 8.546265 7,700 236 282 3200
2019-01-10 20:26:45 GMT 45.716160 8.550453 7,600 239 281 3072
2019-01-10 20:26:39 GMT 45.720116 8.560822 7,275 247 279 2752
2019-01-10 20:26:36 GMT 45.721802 8.567795 7,125 253 278 2496
2019-01-10 20:26:33 GMT 45.722210 8.569885 7,075 259 275 2304
2019-01-10 20:26:30 GMT 45.722992 8.576705 6,900 267 271 2240
2019-01-10 20:26:25 GMT 45.722855 8.586820 6,675 279 262 2176
2019-01-10 20:26:20 GMT 45.721619 8.595462 6,475 288 255 2112
2019-01-10 20:26:16 GMT 45.720444 8.600235 6,375 298 247 2240
2019-01-10 20:26:12 GMT 45.718552 8.605912 6,300 300 245 2048
2019-01-10 20:26:08 GMT 45.716206 8.611084 6,100 307 239 2048
2019-01-10 20:26:03 GMT 45.712830 8.617033 5,900 311 231 2560
2019-01-10 20:25:59 GMT 45.709549 8.622345 5,700 312 226 2624
2019-01-10 20:25:55 GMT 45.706337 8.627495 5,550 312 222 2112
2019-01-10 20:25:50 GMT 45.703720 8.631703 5,350 312 217 1792
2019-01-10 20:25:47 GMT 45.701355 8.635529 5,275 312 214 1728
2019-01-10 20:25:44 GMT 45.699913 8.637863 5,200 312 209 1536
2019-01-10 20:25:38 GMT 45.696030 8.644164 4,975 311 197 1280
2019-01-10 20:25:34 GMT 45.693375 8.648652 4,950 312 191 1216
2019-01-10 20:25:27 GMT 45.689301 8.655304 4,800 312 184 1024
2019-01-10 20:25:23 GMT 45.686550 8.659836 4,725 311 177 1280
2019-01-10 20:25:17 GMT 45.683945 8.664230 4,575 310 171 1344
2019-01-10 20:25:12 GMT 45.681931 8.667744 4,500 309 167 1216
2019-01-10 20:25:05 GMT 45.678406 8.674309 4,325 307 157 1536
2019-01-10 20:25:01 GMT 45.676731 8.677551 4,225 307 155 1600
2019-01-10 20:24:56 GMT 45.674469 8.681879 4,100 307 149 1664
2019-01-10 20:24:52 GMT 45.672638 8.685429 4,025 307 146 1792
2019-01-10 20:24:45 GMT 45.670074 8.690320 3,750 308 143 2240
2019-01-10 20:24:41 GMT 45.667744 8.694580 3,525 309 142 2176
2019-01-10 20:24:36 GMT 45.665558 8.698357 3,350 310 140 2496
2019-01-10 20:24:32 GMT 45.664906 8.699455 3,250 312 140 2560
2019-01-10 20:24:25 GMT 45.661880 8.704330 2,900 314 141 2880

Making use of Plane Finder data

You are free to use the raw flight data, aircraft information and images provided in this report for your own purposes provided the data is correctly attributed to Plane Finder. We ask that you please credit Plane Finder and link to planefinder.net in close proximity to the content.

Optionally one of the following logos (no smaller then 150x24px) can be used and must link to planefinder.net

Embedding the Plane Finder map

You are welcome to embed the Plane Finder playback map on your website to offer visitors a more interactive experience. We suggest using the following HTML code:

<iframe src="//planefinder.net/data/report/U28200-G-EZAN-7700-squawk-2019-01-10/map" width="800" height="600" seamless="seamless"></iframe>

Where our data comes from

Plane Finder has a global network of data feeds and antenna radars that receive data broadcast directly from aircraft. The primary technologies used are ADS-B and MLAT. We also show feeds from the FAA and a FLARM glider feed.

Click here to find out more about the Plane Finder network.

How we collect our data